FDX375 KOAK-RODN
Flight info
| Callsign | FDX375 |
|---|---|
| Flight time | 12h 53m |
| Altitude | 30000 |
| Route | HUSSH2 NIITE DCT PYE DCT VESPA DCT 42N130W 45N140W 47N150W/N0503F300 48N160W 48N170W 47N180W/N0500F320 46N170E 44N160E 40N150E/N0501F340 DCT PUTER Y889 DAIGO Y88 SUGAL Y881 SLIDE DCT ALBAT DCT POMAS V71 ONC DCT OKUMA |
| Aircraft | B748/H-SDE3FGHIM1M2RWXY/LB1 |
Departure
| Time | 2026-04-22 12:33 |
|---|---|
| Airport | San Francisco Bay Oakland International Airport (KOAK) |
Arrival
| Time | 2026-04-23 01:26 |
|---|---|
| Airport | Kadena Air Base (RODN) |
| Time | Latitude | Longitude | Altitude | Speed | Heading |
|---|---|---|---|---|---|
| 2026-04-22 11:55 | 37.71723 | -122.21800 | 19 ft | 0 kts | 130° |
| 2026-04-22 12:14 | 37.71727 | -122.21806 | 18 ft | 1 kts | 130° |
| 2026-04-22 12:14 | 37.71735 | -122.21818 | 18 ft | 1 kts | 130° |
| 2026-04-22 12:14 | 37.71743 | -122.21831 | 18 ft | 1 kts | 130° |
| 2026-04-22 12:15 | 37.71751 | -122.21843 | 18 ft | 1 kts | 130° |
| 2026-04-22 12:15 | 37.71760 | -122.21855 | 18 ft | 1 kts | 130° |
| 2026-04-22 12:15 | 37.71767 | -122.21866 | 18 ft | 0 kts | 130° |
| 2026-04-22 12:15 | 37.71767 | -122.21865 | 18 ft | 0 kts | 130° |
| 2026-04-22 12:21 | 37.71765 | -122.21863 | 18 ft | 0 kts | 121° |
| 2026-04-22 12:21 | 37.71764 | -122.21858 | 18 ft | 0 kts | 101° |
| 2026-04-22 12:22 | 37.71764 | -122.21851 | 18 ft | 0 kts | 71° |
| 2026-04-22 12:22 | 37.71770 | -122.21841 | 18 ft | 2 kts | 51° |
| 2026-04-22 12:22 | 37.71782 | -122.21819 | 18 ft | 3 kts | 60° |
| 2026-04-22 12:22 | 37.71792 | -122.21784 | 18 ft | 4 kts | 88° |
| 2026-04-22 12:23 | 37.71780 | -122.21742 | 18 ft | 5 kts | 129° |
| 2026-04-22 12:23 | 37.71752 | -122.21698 | 18 ft | 7 kts | 129° |
| 2026-04-22 12:23 | 37.71712 | -122.21666 | 18 ft | 6 kts | 188° |
| 2026-04-22 12:23 | 37.71672 | -122.21706 | 18 ft | 8 kts | 227° |
| 2026-04-22 12:24 | 37.71630 | -122.21764 | 18 ft | 9 kts | 228° |
| 2026-04-22 12:24 | 37.71584 | -122.21828 | 18 ft | 9 kts | 228° |
| 2026-04-22 12:24 | 37.71538 | -122.21892 | 18 ft | 9 kts | 228° |
| 2026-04-22 12:24 | 37.71496 | -122.21956 | 18 ft | 9 kts | 232° |
| 2026-04-22 12:25 | 37.71457 | -122.22015 | 18 ft | 8 kts | 229° |
| 2026-04-22 12:25 | 37.71417 | -122.22071 | 18 ft | 8 kts | 228° |
| 2026-04-22 12:25 | 37.71378 | -122.22126 | 18 ft | 8 kts | 228° |
| 2026-04-22 12:25 | 37.71339 | -122.22180 | 18 ft | 8 kts | 228° |
| 2026-04-22 12:26 | 37.71301 | -122.22230 | 18 ft | 7 kts | 220° |
| 2026-04-22 12:26 | 37.71263 | -122.22271 | 18 ft | 7 kts | 220° |
| 2026-04-22 12:26 | 37.71225 | -122.22310 | 18 ft | 7 kts | 220° |
| 2026-04-22 12:26 | 37.71182 | -122.22356 | 18 ft | 8 kts | 220° |
| 2026-04-22 12:27 | 37.71131 | -122.22409 | 18 ft | 10 kts | 220° |
| 2026-04-22 12:27 | 37.71067 | -122.22423 | 18 ft | 10 kts | 147° |
| 2026-04-22 12:27 | 37.71016 | -122.22353 | 18 ft | 11 kts | 129° |
| 2026-04-22 12:27 | 37.70963 | -122.22270 | 18 ft | 12 kts | 129° |
| 2026-04-22 12:28 | 37.70903 | -122.22177 | 18 ft | 14 kts | 129° |
| 2026-04-22 12:28 | 37.70834 | -122.22078 | 18 ft | 15 kts | 133° |
| 2026-04-22 12:28 | 37.70763 | -122.21973 | 18 ft | 16 kts | 130° |
| 2026-04-22 12:28 | 37.70689 | -122.21860 | 18 ft | 17 kts | 130° |
| 2026-04-22 12:29 | 37.70608 | -122.21739 | 18 ft | 18 kts | 130° |
| 2026-04-22 12:29 | 37.70528 | -122.21619 | 18 ft | 17 kts | 130° |
| 2026-04-22 12:29 | 37.70450 | -122.21503 | 18 ft | 17 kts | 130° |
| 2026-04-22 12:29 | 37.70386 | -122.21421 | 17 ft | 8 kts | 147° |
| 2026-04-22 12:30 | 37.70265 | -122.21354 | 16 ft | 8 kts | 172° |
| 2026-04-22 12:30 | 37.70215 | -122.21373 | 17 ft | 6 kts | 217° |
| 2026-04-22 12:30 | 37.70185 | -122.21403 | 18 ft | 4 kts | 218° |
| 2026-04-22 12:31 | 37.70167 | -122.21429 | 18 ft | 3 kts | 250° |
| 2026-04-22 12:31 | 37.70169 | -122.21458 | 18 ft | 3 kts | 299° |
| 2026-04-22 12:31 | 37.70175 | -122.21469 | 18 ft | 0 kts | 309° |
| 2026-04-22 12:31 | 37.70176 | -122.21471 | 18 ft | 0 kts | 309° |
| 2026-04-22 12:32 | 37.70433 | -122.21856 | 18 ft | 87 kts | 310° |
| 2026-04-22 12:32 | 37.70958 | -122.22643 | 19 ft | 143 kts | 310° |
| 2026-04-22 12:33 | 37.71700 | -122.23752 | 20 ft | 186 kts | 313° |
| 2026-04-22 12:33 | 37.72684 | -122.24911 | 302 ft | 195 kts | 325° |
| 2026-04-22 12:33 | 37.73608 | -122.26125 | 783 ft | 194 kts | 301° |
| 2026-04-22 12:33 | 37.74094 | -122.27741 | 1080 ft | 201 kts | 276° |
| 2026-04-22 12:34 | 37.74321 | -122.29444 | 1651 ft | 195 kts | 277° |
| 2026-04-22 12:34 | 37.74580 | -122.31115 | 1928 ft | 197 kts | 283° |
| 2026-04-22 12:34 | 37.75036 | -122.32778 | 2061 ft | 205 kts | 293° |
| 2026-04-22 12:34 | 37.75961 | -122.34198 | 2178 ft | 217 kts | 326° |
| 2026-04-22 12:35 | 37.77403 | -122.34873 | 2388 ft | 219 kts | 344° |
| 2026-04-22 12:35 | 37.78797 | -122.35432 | 2802 ft | 210 kts | 335° |
| 2026-04-22 12:35 | 37.80155 | -122.36161 | 2994 ft | 214 kts | 335° |
| 2026-04-22 12:35 | 37.81575 | -122.36948 | 3102 ft | 228 kts | 335° |
| 2026-04-22 12:36 | 37.83042 | -122.37766 | 3389 ft | 233 kts | 335° |
| 2026-04-22 12:36 | 37.84532 | -122.38664 | 3554 ft | 243 kts | 322° |
| 2026-04-22 12:36 | 37.85672 | -122.40226 | 3811 ft | 245 kts | 296° |
| 2026-04-22 12:36 | 37.86453 | -122.42142 | 4190 ft | 251 kts | 297° |
| 2026-04-22 12:37 | 37.87292 | -122.44165 | 4488 ft | 263 kts | 297° |
| 2026-04-22 12:37 | 37.88220 | -122.46165 | 4845 ft | 266 kts | 301° |
| 2026-04-22 12:37 | 37.89224 | -122.48158 | 5295 ft | 269 kts | 301° |
| 2026-04-22 12:37 | 37.90208 | -122.50146 | 6015 ft | 264 kts | 301° |
| 2026-04-22 12:38 | 37.91187 | -122.52116 | 6545 ft | 266 kts | 301° |
| 2026-04-22 12:38 | 37.92164 | -122.54093 | 7104 ft | 266 kts | 300° |
| 2026-04-22 12:38 | 37.93139 | -122.56068 | 7626 ft | 268 kts | 301° |
| 2026-04-22 12:38 | 37.94137 | -122.58085 | 8142 ft | 269 kts | 301° |
| 2026-04-22 12:39 | 37.95131 | -122.60072 | 8678 ft | 269 kts | 301° |
| 2026-04-22 12:39 | 37.97151 | -122.64102 | 9691 ft | 271 kts | 301° |
| 2026-04-22 12:39 | 37.98149 | -122.66113 | 10154 ft | 272 kts | 300° |
| 2026-04-22 12:40 | 37.99151 | -122.68167 | 10513 ft | 279 kts | 300° |
| 2026-04-22 12:40 | 38.00171 | -122.70289 | 10770 ft | 287 kts | 299° |
| 2026-04-22 12:40 | 38.01195 | -122.72488 | 11139 ft | 291 kts | 299° |
| 2026-04-22 12:40 | 38.02224 | -122.74745 | 11333 ft | 301 kts | 298° |
| 2026-04-22 12:41 | 38.03326 | -122.77072 | 11559 ft | 311 kts | 300° |
| 2026-04-22 12:41 | 38.04470 | -122.79420 | 11769 ft | 320 kts | 300° |
| 2026-04-22 12:41 | 38.05654 | -122.81860 | 11972 ft | 329 kts | 300° |
| 2026-04-22 12:41 | 38.06862 | -122.84378 | 12173 ft | 338 kts | 300° |
| 2026-04-22 12:42 | 38.08109 | -122.86956 | 12389 ft | 348 kts | 304° |
| 2026-04-22 12:42 | 38.09650 | -122.89351 | 12631 ft | 357 kts | 309° |
| 2026-04-22 12:42 | 38.11292 | -122.91774 | 12840 ft | 365 kts | 309° |
| 2026-04-22 12:42 | 38.12967 | -122.94267 | 13039 ft | 374 kts | 309° |
| 2026-04-22 12:43 | 38.14652 | -122.96790 | 13242 ft | 382 kts | 309° |
| 2026-04-22 12:43 | 38.16400 | -122.99394 | 13556 ft | 386 kts | 309° |
| 2026-04-22 12:43 | 38.18145 | -123.01981 | 14019 ft | 386 kts | 309° |
| 2026-04-22 12:43 | 38.19886 | -123.04566 | 14407 ft | 388 kts | 309° |
| 2026-04-22 12:44 | 38.21626 | -123.07191 | 14898 ft | 386 kts | 308° |
| 2026-04-22 12:44 | 38.23326 | -123.09803 | 15333 ft | 386 kts | 308° |
| 2026-04-22 12:44 | 38.25028 | -123.12467 | 15760 ft | 386 kts | 308° |
| 2026-04-22 12:44 | 38.26692 | -123.15108 | 16131 ft | 387 kts | 307° |
| 2026-04-22 12:45 | 38.28385 | -123.17799 | 16503 ft | 387 kts | 307° |
| 2026-04-22 12:45 | 38.30064 | -123.20450 | 16849 ft | 388 kts | 308° |
| 2026-04-22 12:45 | 38.31801 | -123.23099 | 17252 ft | 387 kts | 308° |
| 2026-04-22 12:45 | 38.33525 | -123.25703 | 17591 ft | 388 kts | 308° |
| 2026-04-22 12:46 | 38.35277 | -123.28323 | 18003 ft | 387 kts | 309° |
| 2026-04-22 12:46 | 38.37013 | -123.30919 | 18333 ft | 388 kts | 309° |
| 2026-04-22 12:46 | 38.38764 | -123.33562 | 18617 ft | 389 kts | 308° |
| 2026-04-22 12:46 | 38.40473 | -123.36185 | 18978 ft | 389 kts | 308° |
| 2026-04-22 12:47 | 38.42187 | -123.38870 | 19234 ft | 391 kts | 307° |
| 2026-04-22 12:47 | 38.43891 | -123.41586 | 19495 ft | 392 kts | 307° |
| 2026-04-22 12:47 | 38.45587 | -123.44321 | 19838 ft | 391 kts | 307° |
| 2026-04-22 12:47 | 38.47261 | -123.47017 | 20121 ft | 392 kts | 307° |
| 2026-04-22 12:48 | 38.48998 | -123.49721 | 20340 ft | 395 kts | 308° |
| 2026-04-22 12:48 | 38.50767 | -123.52423 | 20654 ft | 395 kts | 308° |
| 2026-04-22 12:48 | 38.52527 | -123.55089 | 20906 ft | 396 kts | 308° |
| 2026-04-22 12:48 | 38.54312 | -123.57785 | 21127 ft | 397 kts | 308° |
| 2026-04-22 12:49 | 38.56083 | -123.60474 | 21428 ft | 396 kts | 308° |
| 2026-04-22 12:49 | 38.57847 | -123.63184 | 21675 ft | 397 kts | 307° |
| 2026-04-22 12:49 | 38.59590 | -123.65917 | 21954 ft | 396 kts | 306° |
| 2026-04-22 12:49 | 38.61298 | -123.68645 | 22164 ft | 398 kts | 306° |
| 2026-04-22 12:50 | 38.63028 | -123.71446 | 22437 ft | 397 kts | 306° |
| 2026-04-22 12:50 | 38.64717 | -123.74193 | 22658 ft | 399 kts | 306° |
| 2026-04-22 12:50 | 38.66472 | -123.76979 | 22955 ft | 399 kts | 307° |
| 2026-04-22 12:50 | 38.68225 | -123.79687 | 23156 ft | 400 kts | 307° |
| 2026-04-22 12:51 | 38.70015 | -123.82439 | 23382 ft | 401 kts | 307° |
| 2026-04-22 12:51 | 38.71803 | -123.85175 | 23592 ft | 402 kts | 307° |
| 2026-04-22 12:51 | 38.73596 | -123.87923 | 23737 ft | 404 kts | 307° |
| 2026-04-22 12:51 | 38.75386 | -123.90696 | 23986 ft | 404 kts | 307° |
| 2026-04-22 12:52 | 38.77151 | -123.93463 | 24181 ft | 404 kts | 306° |
| 2026-04-22 12:52 | 38.78924 | -123.96282 | 24360 ft | 405 kts | 306° |
| 2026-04-22 12:52 | 38.80679 | -123.99113 | 24517 ft | 407 kts | 306° |
| 2026-04-22 12:52 | 38.82420 | -124.01942 | 24711 ft | 407 kts | 306° |
| 2026-04-22 12:53 | 38.84162 | -124.04767 | 24933 ft | 407 kts | 306° |
| 2026-04-22 12:53 | 38.85944 | -124.07589 | 25010 ft | 410 kts | 307° |
| 2026-04-22 12:53 | 38.87775 | -124.10438 | 25246 ft | 409 kts | 307° |
| 2026-04-22 12:53 | 38.89600 | -124.13255 | 25401 ft | 411 kts | 307° |
| 2026-04-22 12:54 | 38.91428 | -124.16070 | 25560 ft | 411 kts | 307° |
| 2026-04-22 12:54 | 38.93243 | -124.18881 | 25665 ft | 413 kts | 306° |
| 2026-04-22 12:54 | 38.95051 | -124.21725 | 25924 ft | 411 kts | 306° |
| 2026-04-22 12:54 | 38.96847 | -124.24600 | 25965 ft | 414 kts | 306° |
| 2026-04-22 12:55 | 38.98633 | -124.27509 | 26164 ft | 413 kts | 306° |
| 2026-04-22 12:55 | 39.00391 | -124.30408 | 26319 ft | 414 kts | 306° |
| 2026-04-22 12:55 | 39.02161 | -124.33329 | 26424 ft | 415 kts | 306° |
| 2026-04-22 12:55 | 39.03957 | -124.36212 | 26567 ft | 416 kts | 307° |
| 2026-04-22 12:56 | 39.05786 | -124.39086 | 26671 ft | 418 kts | 307° |
| 2026-04-22 12:56 | 39.07652 | -124.42001 | 26799 ft | 418 kts | 307° |
| 2026-04-22 12:56 | 39.09507 | -124.44890 | 26925 ft | 419 kts | 307° |
| 2026-04-22 12:56 | 39.11351 | -124.47773 | 27071 ft | 420 kts | 307° |
| 2026-04-22 12:57 | 39.13175 | -124.50661 | 27164 ft | 421 kts | 306° |
| 2026-04-22 12:57 | 39.15015 | -124.53624 | 27286 ft | 422 kts | 306° |
| 2026-04-22 12:57 | 39.16816 | -124.56567 | 27488 ft | 421 kts | 306° |
| 2026-04-22 12:57 | 39.18615 | -124.59540 | 27620 ft | 421 kts | 306° |
| 2026-04-22 12:58 | 39.20425 | -124.62540 | 27730 ft | 422 kts | 305° |
| 2026-04-22 12:58 | 39.22227 | -124.65486 | 27847 ft | 423 kts | 306° |
| 2026-04-22 12:58 | 39.24089 | -124.68446 | 28118 ft | 421 kts | 306° |
| 2026-04-22 12:58 | 39.25941 | -124.71365 | 28284 ft | 421 kts | 307° |
| 2026-04-22 12:59 | 39.27798 | -124.74274 | 28551 ft | 419 kts | 307° |
| 2026-04-22 12:59 | 39.29637 | -124.77164 | 28712 ft | 418 kts | 306° |
| 2026-04-22 12:59 | 39.31453 | -124.80051 | 28884 ft | 418 kts | 306° |
| 2026-04-22 12:59 | 39.33257 | -124.82972 | 29025 ft | 417 kts | 306° |
| 2026-04-22 13:00 | 39.35052 | -124.85938 | 29236 ft | 416 kts | 305° |
| 2026-04-22 13:00 | 39.36804 | -124.88885 | 29422 ft | 415 kts | 304° |
| 2026-04-22 13:00 | 39.38547 | -124.91833 | 29591 ft | 414 kts | 304° |
| 2026-04-22 13:00 | 39.40316 | -124.94769 | 29778 ft | 414 kts | 306° |
| 2026-04-22 13:01 | 39.42112 | -124.97652 | 29965 ft | 413 kts | 306° |
| 2026-04-22 13:01 | 39.43905 | -125.00521 | 30116 ft | 413 kts | 306° |
| 2026-04-22 13:01 | 39.45710 | -125.03404 | 30271 ft | 412 kts | 306° |
| 2026-04-22 13:01 | 39.47517 | -125.06289 | 30407 ft | 412 kts | 306° |
| 2026-04-22 13:02 | 39.49315 | -125.09178 | 30514 ft | 413 kts | 306° |
| 2026-04-22 13:02 | 39.51110 | -125.12093 | 30619 ft | 413 kts | 306° |
| 2026-04-22 13:02 | 39.52863 | -125.14988 | 30727 ft | 413 kts | 305° |
| 2026-04-22 13:02 | 39.54631 | -125.17957 | 30834 ft | 414 kts | 304° |
| 2026-04-22 13:03 | 39.56360 | -125.20895 | 30960 ft | 414 kts | 304° |
| 2026-04-22 13:03 | 39.58126 | -125.23838 | 31116 ft | 414 kts | 306° |
| 2026-04-22 13:03 | 39.59920 | -125.26753 | 31298 ft | 413 kts | 306° |
| 2026-04-22 13:04 | 39.63517 | -125.32592 | 31491 ft | 414 kts | 306° |
| 2026-04-22 13:04 | 39.67106 | -125.38452 | 31622 ft | 416 kts | 306° |
| 2026-04-22 13:04 | 39.68874 | -125.41351 | 31756 ft | 415 kts | 306° |
| 2026-04-22 13:05 | 39.70669 | -125.44312 | 31813 ft | 415 kts | 306° |
| 2026-04-22 13:05 | 39.74197 | -125.50208 | 31963 ft | 416 kts | 305° |
| 2026-04-22 13:06 | 39.77753 | -125.56141 | 32139 ft | 416 kts | 306° |
| 2026-04-22 13:06 | 39.81343 | -125.62015 | 32136 ft | 417 kts | 306° |
| 2026-04-22 13:07 | 39.84952 | -125.67933 | 32150 ft | 417 kts | 306° |
| 2026-04-22 13:07 | 39.88506 | -125.73863 | 32147 ft | 416 kts | 306° |
| 2026-04-22 13:08 | 39.92022 | -125.79822 | 32144 ft | 417 kts | 305° |
| 2026-04-22 13:08 | 39.95567 | -125.85794 | 32152 ft | 417 kts | 306° |
| 2026-04-22 13:09 | 39.99151 | -125.91717 | 32150 ft | 418 kts | 307° |
| 2026-04-22 13:09 | 40.02739 | -125.97669 | 32141 ft | 418 kts | 306° |
| 2026-04-22 13:10 | 40.06302 | -126.03684 | 32148 ft | 419 kts | 306° |
| 2026-04-22 13:10 | 40.09816 | -126.09707 | 32143 ft | 418 kts | 306° |
| 2026-04-22 13:11 | 40.13373 | -126.15695 | 32142 ft | 420 kts | 307° |
| 2026-04-22 13:11 | 40.16987 | -126.21716 | 32149 ft | 420 kts | 307° |
| 2026-04-22 13:12 | 40.20560 | -126.27714 | 32149 ft | 420 kts | 306° |
| 2026-04-22 13:12 | 40.24092 | -126.33752 | 32142 ft | 420 kts | 306° |
| 2026-04-22 13:13 | 40.27623 | -126.39857 | 32143 ft | 421 kts | 307° |
| 2026-04-22 13:13 | 40.31179 | -126.45901 | 32143 ft | 420 kts | 307° |
| 2026-04-22 13:14 | 40.34789 | -126.51975 | 32138 ft | 422 kts | 307° |
| 2026-04-22 13:14 | 40.38370 | -126.58041 | 32129 ft | 421 kts | 307° |
| 2026-04-22 13:15 | 40.41913 | -126.64161 | 32134 ft | 421 kts | 307° |
| 2026-04-22 13:15 | 40.45419 | -126.70284 | 32156 ft | 422 kts | 306° |
| 2026-04-22 13:16 | 40.48971 | -126.76392 | 32154 ft | 421 kts | 307° |
| 2026-04-22 13:16 | 40.52546 | -126.82493 | 32157 ft | 422 kts | 307° |
| 2026-04-22 13:17 | 40.56102 | -126.88572 | 32151 ft | 422 kts | 307° |
| 2026-04-22 13:17 | 40.59645 | -126.94709 | 32142 ft | 421 kts | 306° |
| 2026-04-22 13:18 | 40.63134 | -127.00920 | 32143 ft | 422 kts | 304° |
| 2026-04-22 13:18 | 40.66401 | -127.07297 | 32143 ft | 420 kts | 303° |
| 2026-04-22 13:19 | 40.69460 | -127.13787 | 32139 ft | 419 kts | 302° |
| 2026-04-22 13:19 | 40.72377 | -127.20458 | 32151 ft | 420 kts | 301° |
| 2026-04-22 13:20 | 40.75476 | -127.26956 | 32148 ft | 422 kts | 303° |
| 2026-04-22 13:20 | 40.78635 | -127.33466 | 32141 ft | 421 kts | 303° |
| 2026-04-22 13:21 | 40.81782 | -127.39978 | 32142 ft | 422 kts | 303° |
| 2026-04-22 13:21 | 40.84922 | -127.46510 | 32140 ft | 423 kts | 303° |
| 2026-04-22 13:22 | 40.88024 | -127.53093 | 32143 ft | 423 kts | 302° |
| 2026-04-22 13:22 | 40.91101 | -127.59737 | 32140 ft | 425 kts | 302° |
| 2026-04-22 13:23 | 40.94216 | -127.66374 | 32147 ft | 425 kts | 303° |
| 2026-04-22 13:23 | 40.97349 | -127.72937 | 32146 ft | 423 kts | 303° |
| 2026-04-22 13:24 | 41.00483 | -127.79530 | 32146 ft | 424 kts | 303° |
| 2026-04-22 13:24 | 41.03561 | -127.86135 | 32150 ft | 426 kts | 302° |
| 2026-04-22 13:25 | 41.06648 | -127.92870 | 32154 ft | 426 kts | 302° |
| 2026-04-22 13:25 | 41.09740 | -127.99526 | 32146 ft | 426 kts | 303° |
| 2026-04-22 13:26 | 41.12874 | -128.06171 | 32157 ft | 426 kts | 303° |
| 2026-04-22 13:26 | 41.15992 | -128.12820 | 32156 ft | 427 kts | 303° |
| 2026-04-22 13:27 | 41.19079 | -128.19518 | 32149 ft | 427 kts | 302° |
| 2026-04-22 13:27 | 41.22150 | -128.26277 | 32147 ft | 427 kts | 303° |
| 2026-04-22 13:28 | 41.25246 | -128.32976 | 32149 ft | 429 kts | 303° |
| 2026-04-22 13:28 | 41.28413 | -128.39716 | 32176 ft | 429 kts | 301° |
| 2026-04-22 13:29 | 41.31452 | -128.46544 | 32150 ft | 432 kts | 301° |
| 2026-04-22 13:29 | 41.34546 | -128.53354 | 32150 ft | 428 kts | 302° |
| 2026-04-22 13:30 | 41.37639 | -128.60129 | 32290 ft | 431 kts | 302° |
| 2026-04-22 13:30 | 41.39180 | -128.63504 | 32574 ft | 430 kts | 302° |
| 2026-04-22 13:30 | 41.40739 | -128.66928 | 32769 ft | 430 kts | 301° |
| 2026-04-22 13:30 | 41.42270 | -128.70293 | 33017 ft | 429 kts | 301° |
| 2026-04-22 13:31 | 41.43821 | -128.73704 | 33228 ft | 429 kts | 301° |
| 2026-04-22 13:31 | 41.45359 | -128.77090 | 33476 ft | 428 kts | 301° |
| 2026-04-22 13:31 | 41.46903 | -128.80496 | 33672 ft | 429 kts | 301° |
| 2026-04-22 13:31 | 41.48432 | -128.83873 | 33887 ft | 428 kts | 301° |
| 2026-04-22 13:32 | 41.49970 | -128.87268 | 34081 ft | 428 kts | 301° |
| 2026-04-22 13:32 | 41.51500 | -128.90654 | 34272 ft | 427 kts | 301° |
| 2026-04-22 13:32 | 41.53031 | -128.94041 | 34434 ft | 427 kts | 301° |
| 2026-04-22 13:32 | 41.54543 | -128.97392 | 34568 ft | 428 kts | 301° |
| 2026-04-22 13:33 | 41.56074 | -129.00792 | 34688 ft | 428 kts | 301° |
| 2026-04-22 13:33 | 41.57600 | -129.04182 | 34802 ft | 428 kts | 301° |
| 2026-04-22 13:33 | 41.59125 | -129.07573 | 34898 ft | 428 kts | 301° |
| 2026-04-22 13:34 | 41.62207 | -129.14438 | 35068 ft | 429 kts | 301° |
| 2026-04-22 13:34 | 41.65250 | -129.21234 | 35190 ft | 431 kts | 301° |
| 2026-04-22 13:35 | 41.68318 | -129.28102 | 35339 ft | 431 kts | 301° |
| 2026-04-22 13:35 | 41.71390 | -129.34992 | 35481 ft | 432 kts | 301° |
| 2026-04-22 13:36 | 41.74461 | -129.41896 | 35576 ft | 434 kts | 301° |
| 2026-04-22 13:36 | 41.77535 | -129.48822 | 35678 ft | 434 kts | 301° |
| 2026-04-22 13:37 | 41.80612 | -129.55775 | 35770 ft | 436 kts | 301° |
| 2026-04-22 13:37 | 41.83683 | -129.62729 | 35866 ft | 436 kts | 301° |
| 2026-04-22 13:38 | 41.86778 | -129.69754 | 35953 ft | 437 kts | 301° |
| 2026-04-22 13:38 | 41.89850 | -129.76746 | 36086 ft | 437 kts | 301° |
| 2026-04-22 13:38 | 41.91395 | -129.80267 | 36101 ft | 439 kts | 301° |
| 2026-04-22 13:39 | 41.94478 | -129.87311 | 36179 ft | 441 kts | 301° |
| 2026-04-22 13:39 | 41.97575 | -129.94408 | 36182 ft | 438 kts | 301° |
| 2026-04-22 13:40 | 42.00595 | -130.01488 | 36176 ft | 437 kts | 298° |
| 2026-04-22 13:40 | 42.03259 | -130.08833 | 36166 ft | 439 kts | 296° |
| 2026-04-22 13:41 | 42.05884 | -130.16208 | 36168 ft | 439 kts | 297° |
| 2026-04-22 13:41 | 42.08516 | -130.23587 | 36169 ft | 440 kts | 297° |
| 2026-04-22 13:42 | 42.11165 | -130.31027 | 36168 ft | 441 kts | 297° |
| 2026-04-22 13:42 | 42.13813 | -130.38478 | 36167 ft | 442 kts | 297° |
| 2026-04-22 13:43 | 42.16447 | -130.45908 | 36175 ft | 443 kts | 297° |
| 2026-04-22 13:43 | 42.19093 | -130.53392 | 36170 ft | 441 kts | 297° |
| 2026-04-22 13:44 | 42.21720 | -130.60840 | 36172 ft | 442 kts | 297° |
| 2026-04-22 13:44 | 42.24352 | -130.68318 | 36178 ft | 443 kts | 296° |
| 2026-04-22 13:45 | 42.26977 | -130.75795 | 36180 ft | 443 kts | 296° |
| 2026-04-22 13:45 | 42.29615 | -130.83330 | 36184 ft | 443 kts | 296° |
| 2026-04-22 13:46 | 42.32229 | -130.90817 | 36175 ft | 444 kts | 296° |
| 2026-04-22 13:46 | 42.34851 | -130.98347 | 36173 ft | 445 kts | 296° |
| 2026-04-22 13:47 | 42.37467 | -131.05878 | 36187 ft | 445 kts | 296° |
| 2026-04-22 13:47 | 42.40085 | -131.13438 | 36187 ft | 445 kts | 296° |
| 2026-04-22 13:48 | 42.42692 | -131.20982 | 36191 ft | 445 kts | 296° |
| 2026-04-22 13:48 | 42.45302 | -131.28560 | 36184 ft | 445 kts | 296° |
| 2026-04-22 13:49 | 42.47912 | -131.36159 | 36193 ft | 445 kts | 296° |
| 2026-04-22 13:49 | 42.50509 | -131.43733 | 36192 ft | 446 kts | 296° |
| 2026-04-22 13:50 | 42.53102 | -131.51329 | 36197 ft | 446 kts | 296° |
| 2026-04-22 13:50 | 42.55712 | -131.58986 | 36206 ft | 446 kts | 296° |
| 2026-04-22 13:51 | 42.58300 | -131.66600 | 36202 ft | 446 kts | 295° |
| 2026-04-22 13:51 | 42.60889 | -131.74243 | 36204 ft | 447 kts | 295° |
| 2026-04-22 13:52 | 42.63467 | -131.81876 | 36213 ft | 447 kts | 295° |
| 2026-04-22 13:52 | 42.66036 | -131.89499 | 36212 ft | 447 kts | 295° |
| 2026-04-22 13:53 | 42.68610 | -131.97162 | 36206 ft | 446 kts | 295° |
| 2026-04-22 13:53 | 42.71176 | -132.04820 | 36199 ft | 447 kts | 295° |
| 2026-04-22 13:54 | 42.73738 | -132.12486 | 36197 ft | 447 kts | 295° |
| 2026-04-22 13:54 | 42.76307 | -132.20201 | 36202 ft | 447 kts | 295° |
| 2026-04-22 13:55 | 42.78863 | -132.27893 | 36205 ft | 448 kts | 295° |
| 2026-04-22 13:55 | 42.81408 | -132.35574 | 36222 ft | 448 kts | 295° |
| 2026-04-22 13:56 | 42.83965 | -132.43314 | 36221 ft | 448 kts | 295° |
| 2026-04-22 13:56 | 42.86498 | -132.51007 | 36218 ft | 447 kts | 295° |
| 2026-04-22 13:57 | 42.89036 | -132.58731 | 36220 ft | 448 kts | 295° |
| 2026-04-22 13:57 | 42.91572 | -132.66478 | 36226 ft | 449 kts | 294° |
| 2026-04-22 13:58 | 42.94115 | -132.74262 | 36235 ft | 450 kts | 295° |
| 2026-04-22 13:58 | 42.96657 | -132.82068 | 36245 ft | 449 kts | 295° |
| 2026-04-22 13:59 | 42.99166 | -132.89801 | 36255 ft | 450 kts | 295° |
| 2026-04-22 13:59 | 43.01704 | -132.97638 | 36251 ft | 450 kts | 295° |
| 2026-04-22 14:00 | 43.04216 | -133.05418 | 36253 ft | 451 kts | 294° |
| 2026-04-22 14:00 | 43.06747 | -133.13284 | 36257 ft | 451 kts | 294° |
| 2026-04-22 14:01 | 43.09250 | -133.21085 | 36255 ft | 451 kts | 294° |
| 2026-04-22 14:01 | 43.11759 | -133.28928 | 36265 ft | 451 kts | 294° |
| 2026-04-22 14:02 | 43.14264 | -133.36781 | 36266 ft | 451 kts | 294° |
| 2026-04-22 14:02 | 43.16769 | -133.44661 | 36269 ft | 451 kts | 294° |
| 2026-04-22 14:03 | 43.19260 | -133.52518 | 36271 ft | 452 kts | 294° |
| 2026-04-22 14:03 | 43.21754 | -133.60397 | 36272 ft | 453 kts | 294° |
| 2026-04-22 14:04 | 43.24254 | -133.68329 | 36277 ft | 454 kts | 294° |
| 2026-04-22 14:04 | 43.26738 | -133.76231 | 36276 ft | 454 kts | 294° |
| 2026-04-22 14:05 | 43.29232 | -133.84192 | 36274 ft | 453 kts | 294° |
| 2026-04-22 14:06 | 43.32928 | -133.96037 | 36281 ft | 453 kts | 294° |
| 2026-04-22 14:06 | 43.35395 | -134.03972 | 36285 ft | 454 kts | 293° |
| 2026-04-22 14:07 | 43.37858 | -134.11919 | 36283 ft | 454 kts | 293° |
| 2026-04-22 14:07 | 43.40336 | -134.19933 | 36278 ft | 454 kts | 293° |
| 2026-04-22 14:08 | 43.42785 | -134.27881 | 36282 ft | 455 kts | 293° |
| 2026-04-22 14:08 | 43.45242 | -134.35883 | 36284 ft | 455 kts | 293° |
| 2026-04-22 14:09 | 43.47695 | -134.43893 | 36287 ft | 455 kts | 293° |
| 2026-04-22 14:09 | 43.50142 | -134.51907 | 36292 ft | 456 kts | 293° |
| 2026-04-22 14:10 | 43.52589 | -134.59946 | 36295 ft | 456 kts | 293° |
| 2026-04-22 14:10 | 43.55023 | -134.67969 | 36293 ft | 456 kts | 292° |
| 2026-04-22 14:11 | 43.57457 | -134.76018 | 36302 ft | 456 kts | 292° |
| 2026-04-22 14:11 | 43.59893 | -134.84093 | 36297 ft | 457 kts | 292° |
| 2026-04-22 14:12 | 43.62320 | -134.92166 | 36295 ft | 456 kts | 292° |
| 2026-04-22 14:12 | 43.64734 | -135.00229 | 36295 ft | 456 kts | 292° |
| 2026-04-22 14:13 | 43.67145 | -135.08304 | 36299 ft | 457 kts | 292° |
| 2026-04-22 14:13 | 43.69553 | -135.16388 | 36304 ft | 458 kts | 292° |
| 2026-04-22 14:14 | 43.71977 | -135.24548 | 36308 ft | 458 kts | 292° |
| 2026-04-22 14:14 | 43.74361 | -135.32616 | 36314 ft | 458 kts | 292° |
| 2026-04-22 14:15 | 43.76761 | -135.40758 | 36321 ft | 459 kts | 292° |
| 2026-04-22 14:15 | 43.79171 | -135.48953 | 36329 ft | 458 kts | 292° |
| 2026-04-22 14:16 | 43.81547 | -135.57066 | 36333 ft | 458 kts | 292° |
| 2026-04-22 14:16 | 43.83938 | -135.65247 | 36339 ft | 459 kts | 292° |
| 2026-04-22 14:17 | 43.86316 | -135.73413 | 36341 ft | 459 kts | 292° |
| 2026-04-22 14:17 | 43.88686 | -135.81589 | 36339 ft | 458 kts | 292° |
| 2026-04-22 14:18 | 43.91054 | -135.89774 | 36343 ft | 459 kts | 292° |
| 2026-04-22 14:18 | 43.93408 | -135.97943 | 36346 ft | 459 kts | 292° |
| 2026-04-22 14:19 | 43.95757 | -136.06119 | 36334 ft | 458 kts | 292° |
| 2026-04-22 14:19 | 43.98116 | -136.14348 | 36332 ft | 460 kts | 292° |
| 2026-04-22 14:20 | 44.01645 | -136.26727 | 36341 ft | 461 kts | 292° |
| 2026-04-22 14:20 | 44.03974 | -136.34926 | 36343 ft | 461 kts | 292° |
| 2026-04-22 14:21 | 44.07481 | -136.47324 | 36347 ft | 461 kts | 291° |
| 2026-04-22 14:22 | 44.10983 | -136.59763 | 36348 ft | 461 kts | 291° |
| 2026-04-22 14:23 | 44.14456 | -136.72166 | 36355 ft | 460 kts | 291° |
| 2026-04-22 14:23 | 44.16761 | -136.80438 | 36359 ft | 460 kts | 291° |
| 2026-04-22 14:24 | 44.19065 | -136.88722 | 36360 ft | 461 kts | 291° |
| 2026-04-22 14:24 | 44.21363 | -136.97026 | 36358 ft | 461 kts | 291° |
| 2026-04-22 14:25 | 44.23662 | -137.05359 | 36359 ft | 461 kts | 291° |
| 2026-04-22 14:25 | 44.25950 | -137.13672 | 36362 ft | 462 kts | 291° |
| 2026-04-22 14:26 | 44.28234 | -137.22006 | 36365 ft | 461 kts | 291° |
| 2026-04-22 14:26 | 44.30515 | -137.30351 | 36365 ft | 461 kts | 291° |
| 2026-04-22 14:27 | 44.32798 | -137.38734 | 36367 ft | 462 kts | 291° |
| 2026-04-22 14:27 | 44.35055 | -137.47061 | 36371 ft | 462 kts | 291° |
| 2026-04-22 14:28 | 44.37321 | -137.55438 | 36372 ft | 462 kts | 291° |
| 2026-04-22 14:28 | 44.39573 | -137.63802 | 36374 ft | 462 kts | 291° |
| 2026-04-22 14:29 | 44.41835 | -137.72220 | 36372 ft | 463 kts | 290° |
| 2026-04-22 14:29 | 44.44089 | -137.80649 | 36372 ft | 463 kts | 290° |
| 2026-04-22 14:30 | 44.46325 | -137.89027 | 36382 ft | 463 kts | 290° |
| 2026-04-22 14:30 | 44.48559 | -137.97440 | 36384 ft | 463 kts | 290° |
| 2026-04-22 14:31 | 44.50791 | -138.05870 | 36389 ft | 464 kts | 290° |
| 2026-04-22 14:31 | 44.53023 | -138.14331 | 36388 ft | 463 kts | 290° |
| 2026-04-22 14:32 | 44.55237 | -138.22757 | 36391 ft | 464 kts | 290° |
| 2026-04-22 14:32 | 44.57455 | -138.31226 | 36394 ft | 464 kts | 290° |
| 2026-04-22 14:33 | 44.59662 | -138.39682 | 36394 ft | 464 kts | 290° |
| 2026-04-22 14:33 | 44.61876 | -138.48198 | 36394 ft | 464 kts | 290° |
| 2026-04-22 14:34 | 44.64074 | -138.56680 | 36393 ft | 464 kts | 290° |
| 2026-04-22 14:34 | 44.66255 | -138.65120 | 36395 ft | 464 kts | 289° |
| 2026-04-22 14:35 | 44.68444 | -138.73627 | 36403 ft | 465 kts | 289° |
| 2026-04-22 14:35 | 44.70627 | -138.82150 | 36410 ft | 464 kts | 289° |
| 2026-04-22 14:36 | 44.72797 | -138.90654 | 36418 ft | 464 kts | 289° |
| 2026-04-22 14:36 | 44.74977 | -138.99217 | 36414 ft | 464 kts | 289° |
| 2026-04-22 14:37 | 44.77133 | -139.07730 | 36424 ft | 464 kts | 289° |
| 2026-04-22 14:37 | 44.79292 | -139.16270 | 36415 ft | 463 kts | 289° |
| 2026-04-22 14:38 | 44.81437 | -139.24800 | 36411 ft | 464 kts | 289° |
| 2026-04-22 14:38 | 44.83582 | -139.33353 | 36411 ft | 465 kts | 289° |
| 2026-04-22 14:39 | 44.85719 | -139.41913 | 36416 ft | 466 kts | 289° |
| 2026-04-22 14:39 | 44.87854 | -139.50494 | 36414 ft | 466 kts | 289° |
| 2026-04-22 14:40 | 44.91048 | -139.63399 | 36416 ft | 466 kts | 289° |
| 2026-04-22 14:40 | 44.93165 | -139.71986 | 36420 ft | 466 kts | 288° |
| 2026-04-22 14:41 | 44.95272 | -139.80582 | 36420 ft | 466 kts | 288° |
| 2026-04-22 14:41 | 44.97386 | -139.89224 | 36422 ft | 466 kts | 288° |
| 2026-04-22 14:42 | 44.99488 | -139.97868 | 36430 ft | 466 kts | 288° |
| 2026-04-22 14:42 | 45.01624 | -140.06514 | 36429 ft | 467 kts | 289° |
| 2026-04-22 14:43 | 45.03780 | -140.15071 | 36418 ft | 467 kts | 289° |
| 2026-04-22 14:43 | 45.05956 | -140.23743 | 36414 ft | 467 kts | 289° |
| 2026-04-22 14:44 | 45.08109 | -140.32361 | 36425 ft | 468 kts | 289° |
| 2026-04-22 14:44 | 45.10266 | -140.41029 | 36413 ft | 468 kts | 289° |
| 2026-04-22 14:45 | 45.12406 | -140.49669 | 36415 ft | 467 kts | 289° |
| 2026-04-22 14:45 | 45.14547 | -140.58342 | 36417 ft | 466 kts | 289° |
| 2026-04-22 14:46 | 45.16673 | -140.66995 | 36425 ft | 467 kts | 289° |
| 2026-04-22 14:46 | 45.18787 | -140.75627 | 36416 ft | 467 kts | 289° |
| 2026-04-22 14:47 | 45.20911 | -140.84351 | 36422 ft | 468 kts | 289° |
| 2026-04-22 14:47 | 45.23009 | -140.92999 | 36419 ft | 469 kts | 289° |
| 2026-04-22 14:48 | 45.25132 | -141.01775 | 36418 ft | 469 kts | 289° |
| 2026-04-22 14:48 | 45.27219 | -141.10443 | 36424 ft | 469 kts | 289° |
| 2026-04-22 14:49 | 45.29320 | -141.19199 | 36423 ft | 468 kts | 289° |
| 2026-04-22 14:49 | 45.31409 | -141.27946 | 36437 ft | 468 kts | 289° |
| 2026-04-22 14:50 | 45.33487 | -141.36684 | 36441 ft | 468 kts | 289° |
| 2026-04-22 14:50 | 45.35551 | -141.45403 | 36438 ft | 469 kts | 289° |
| 2026-04-22 14:51 | 45.37622 | -141.54167 | 36445 ft | 468 kts | 289° |
| 2026-04-22 14:51 | 45.39673 | -141.62897 | 36440 ft | 469 kts | 289° |
| 2026-04-22 14:52 | 45.41738 | -141.71712 | 36447 ft | 470 kts | 288° |
| 2026-04-22 14:52 | 45.43794 | -141.80534 | 36452 ft | 470 kts | 288° |
| 2026-04-22 14:53 | 45.45829 | -141.89298 | 36456 ft | 470 kts | 288° |
| 2026-04-22 14:53 | 45.47865 | -141.98102 | 36458 ft | 469 kts | 288° |
| 2026-04-22 14:54 | 45.49888 | -142.06888 | 36447 ft | 469 kts | 288° |
| 2026-04-22 14:54 | 45.51915 | -142.15721 | 36448 ft | 469 kts | 288° |
| 2026-04-22 14:55 | 45.53932 | -142.24553 | 36442 ft | 469 kts | 288° |
| 2026-04-22 14:55 | 45.55931 | -142.33339 | 36434 ft | 470 kts | 288° |
| 2026-04-22 14:56 | 45.57939 | -142.42204 | 36439 ft | 470 kts | 288° |
| 2026-04-22 14:56 | 45.59944 | -142.51086 | 36437 ft | 471 kts | 288° |
| 2026-04-22 14:57 | 45.61935 | -142.59946 | 36579 ft | 475 kts | 288° |
| 2026-04-22 14:57 | 45.62937 | -142.64421 | 36409 ft | 467 kts | 288° |
| 2026-04-22 14:57 | 45.63905 | -142.68758 | 36483 ft | 463 kts | 288° |
| 2026-04-22 14:58 | 45.65859 | -142.77530 | 36471 ft | 466 kts | 288° |
| 2026-04-22 14:58 | 45.67827 | -142.86395 | 36454 ft | 468 kts | 288° |
| 2026-04-22 14:59 | 45.69781 | -142.95244 | 36459 ft | 469 kts | 288° |
| 2026-04-22 14:59 | 45.71740 | -143.04135 | 36446 ft | 469 kts | 288° |
| 2026-04-22 15:00 | 45.73673 | -143.12958 | 36452 ft | 469 kts | 288° |
| 2026-04-22 15:00 | 45.75617 | -143.21861 | 36441 ft | 469 kts | 288° |
| 2026-04-22 15:01 | 45.77551 | -143.30766 | 36458 ft | 468 kts | 288° |
| 2026-04-22 15:01 | 45.79468 | -143.39630 | 36463 ft | 468 kts | 288° |
| 2026-04-22 15:02 | 45.81378 | -143.48496 | 36457 ft | 468 kts | 288° |
| 2026-04-22 15:02 | 45.83289 | -143.57408 | 36457 ft | 468 kts | 288° |
| 2026-04-22 15:03 | 45.85186 | -143.66290 | 36464 ft | 467 kts | 287° |
| 2026-04-22 15:03 | 45.87078 | -143.75183 | 36472 ft | 467 kts | 287° |
| 2026-04-22 15:04 | 45.88952 | -143.84035 | 36476 ft | 467 kts | 287° |
| 2026-04-22 15:04 | 45.90830 | -143.92944 | 36472 ft | 467 kts | 287° |
| 2026-04-22 15:05 | 45.92695 | -144.01839 | 36477 ft | 467 kts | 287° |
| 2026-04-22 15:05 | 45.94547 | -144.10693 | 36481 ft | 466 kts | 287° |
| 2026-04-22 15:06 | 45.96407 | -144.19623 | 36478 ft | 466 kts | 287° |
| 2026-04-22 15:06 | 45.98251 | -144.28538 | 36473 ft | 466 kts | 287° |
| 2026-04-22 15:07 | 46.00087 | -144.37434 | 36472 ft | 466 kts | 287° |
| 2026-04-22 15:07 | 46.01918 | -144.46355 | 36463 ft | 467 kts | 288° |
| 2026-04-22 15:08 | 46.03739 | -144.55266 | 36459 ft | 466 kts | 288° |
| 2026-04-22 15:08 | 46.05547 | -144.64151 | 36460 ft | 465 kts | 288° |
| 2026-04-22 15:09 | 46.07353 | -144.73064 | 36467 ft | 465 kts | 287° |
| 2026-04-22 15:09 | 46.09147 | -144.81957 | 36466 ft | 466 kts | 287° |
| 2026-04-22 15:10 | 46.10944 | -144.90907 | 36468 ft | 465 kts | 287° |
| 2026-04-22 15:10 | 46.12730 | -144.99840 | 36464 ft | 465 kts | 287° |
| 2026-04-22 15:11 | 46.14498 | -145.08731 | 36465 ft | 464 kts | 287° |
| 2026-04-22 15:11 | 46.16264 | -145.17650 | 36467 ft | 463 kts | 288° |
| 2026-04-22 15:12 | 46.18021 | -145.26566 | 36463 ft | 464 kts | 288° |
| 2026-04-22 15:12 | 46.18892 | -145.30994 | 36109 ft | 463 kts | 288° |
| 2026-04-22 15:12 | 46.19769 | -145.35471 | 36520 ft | 458 kts | 288° |
| 2026-04-22 15:13 | 46.20638 | -145.39911 | 36413 ft | 466 kts | 288° |
| 2026-04-22 15:13 | 46.21509 | -145.44371 | 36492 ft | 464 kts | 288° |
| 2026-04-22 15:13 | 46.23251 | -145.53331 | 36461 ft | 464 kts | 288° |
| 2026-04-22 15:14 | 46.24981 | -145.62279 | 36460 ft | 464 kts | 288° |
| 2026-04-22 15:14 | 46.26712 | -145.71257 | 36466 ft | 465 kts | 287° |
| 2026-04-22 15:15 | 46.28437 | -145.80260 | 36463 ft | 465 kts | 287° |
| 2026-04-22 15:15 | 46.30141 | -145.89188 | 36475 ft | 464 kts | 287° |
| 2026-04-22 15:16 | 46.31847 | -145.98164 | 36474 ft | 464 kts | 287° |
| 2026-04-22 15:16 | 46.33537 | -146.07109 | 36471 ft | 462 kts | 287° |
| 2026-04-22 15:17 | 46.35220 | -146.16060 | 36460 ft | 462 kts | 287° |
| 2026-04-22 15:17 | 46.36891 | -146.24976 | 36465 ft | 462 kts | 287° |
| 2026-04-22 15:18 | 46.38561 | -146.33943 | 36460 ft | 461 kts | 287° |
| 2026-04-22 15:18 | 46.40219 | -146.42880 | 36458 ft | 462 kts | 288° |
| 2026-04-22 15:19 | 46.41868 | -146.51825 | 36457 ft | 462 kts | 288° |
| 2026-04-22 15:19 | 46.43520 | -146.60818 | 36455 ft | 460 kts | 288° |
| 2026-04-22 15:20 | 46.45147 | -146.69711 | 36458 ft | 460 kts | 287° |
| 2026-04-22 15:20 | 46.46780 | -146.78700 | 36458 ft | 460 kts | 287° |
| 2026-04-22 15:21 | 46.48391 | -146.87589 | 36455 ft | 459 kts | 287° |
| 2026-04-22 15:21 | 46.50007 | -146.96568 | 36459 ft | 459 kts | 287° |
| 2026-04-22 15:22 | 46.51607 | -147.05496 | 36464 ft | 458 kts | 287° |
| 2026-04-22 15:22 | 46.53193 | -147.14384 | 36454 ft | 457 kts | 287° |
| 2026-04-22 15:23 | 46.54778 | -147.23318 | 36447 ft | 457 kts | 287° |
| 2026-04-22 15:23 | 46.56343 | -147.32184 | 36444 ft | 457 kts | 287° |
| 2026-04-22 15:24 | 46.57918 | -147.41139 | 36437 ft | 457 kts | 287° |
| 2026-04-22 15:24 | 46.59471 | -147.50026 | 36440 ft | 457 kts | 287° |
| 2026-04-22 15:25 | 46.61025 | -147.58964 | 36447 ft | 456 kts | 287° |
| 2026-04-22 15:25 | 46.62561 | -147.67837 | 36451 ft | 455 kts | 287° |
| 2026-04-22 15:26 | 46.64097 | -147.76756 | 36447 ft | 455 kts | 287° |
| 2026-04-22 15:26 | 46.65628 | -147.85692 | 36454 ft | 455 kts | 287° |
| 2026-04-22 15:27 | 46.67144 | -147.94592 | 36444 ft | 455 kts | 287° |
| 2026-04-22 15:27 | 46.68653 | -148.03481 | 36429 ft | 455 kts | 287° |
| 2026-04-22 15:28 | 46.70155 | -148.12380 | 36428 ft | 456 kts | 287° |
| 2026-04-22 15:28 | 46.71658 | -148.21338 | 36424 ft | 455 kts | 287° |
| 2026-04-22 15:29 | 46.73145 | -148.30252 | 36420 ft | 455 kts | 287° |
| 2026-04-22 15:30 | 46.75373 | -148.43680 | 36423 ft | 455 kts | 287° |
| 2026-04-22 15:30 | 46.76849 | -148.52637 | 36423 ft | 455 kts | 287° |
| 2026-04-22 15:31 | 46.78312 | -148.61565 | 36426 ft | 455 kts | 287° |
| 2026-04-22 15:31 | 46.79771 | -148.70509 | 36422 ft | 455 kts | 286° |
| 2026-04-22 15:32 | 46.81223 | -148.79466 | 36429 ft | 455 kts | 286° |
| 2026-04-22 15:32 | 46.82677 | -148.88475 | 36429 ft | 456 kts | 286° |
| 2026-04-22 15:33 | 46.84118 | -148.97461 | 36420 ft | 456 kts | 285° |
| 2026-04-22 15:33 | 46.85552 | -149.06447 | 36419 ft | 457 kts | 285° |
| 2026-04-22 15:34 | 46.86980 | -149.15442 | 36414 ft | 457 kts | 285° |
| 2026-04-22 15:34 | 46.88406 | -149.24483 | 36414 ft | 457 kts | 285° |
| 2026-04-22 15:35 | 46.89818 | -149.33482 | 36408 ft | 457 kts | 285° |
| 2026-04-22 15:35 | 46.91233 | -149.42551 | 36407 ft | 458 kts | 285° |
| 2026-04-22 15:36 | 46.92634 | -149.51582 | 36404 ft | 458 kts | 285° |
| 2026-04-22 15:36 | 46.94037 | -149.60677 | 36405 ft | 458 kts | 285° |
| 2026-04-22 15:37 | 46.95423 | -149.69714 | 36403 ft | 459 kts | 284° |
| 2026-04-22 15:37 | 46.96814 | -149.78838 | 36392 ft | 460 kts | 284° |
| 2026-04-22 15:38 | 46.98192 | -149.87935 | 36380 ft | 461 kts | 284° |
| 2026-04-22 15:38 | 47.00242 | -150.01619 | 36377 ft | 461 kts | 284° |
| 2026-04-22 15:39 | 47.01580 | -150.10777 | 36381 ft | 460 kts | 284° |
| 2026-04-22 15:39 | 47.02905 | -150.19920 | 36381 ft | 461 kts | 283° |
| 2026-04-22 15:40 | 47.04235 | -150.29156 | 36375 ft | 462 kts | 283° |
| 2026-04-22 15:40 | 47.05542 | -150.38298 | 36366 ft | 462 kts | 283° |
| 2026-04-22 15:41 | 47.06846 | -150.47470 | 36372 ft | 461 kts | 283° |
| 2026-04-22 15:41 | 47.08145 | -150.56659 | 36379 ft | 461 kts | 283° |
| 2026-04-22 15:42 | 47.09443 | -150.65904 | 36371 ft | 463 kts | 282° |
| 2026-04-22 15:42 | 47.10731 | -150.75140 | 36373 ft | 463 kts | 282° |
| 2026-04-22 15:43 | 47.12004 | -150.84326 | 36364 ft | 463 kts | 282° |
| 2026-04-22 15:43 | 47.13273 | -150.93538 | 36361 ft | 462 kts | 282° |
| 2026-04-22 15:44 | 47.14534 | -151.02759 | 36357 ft | 463 kts | 282° |
| 2026-04-22 15:44 | 47.15796 | -151.12035 | 36343 ft | 463 kts | 282° |
| 2026-04-22 15:45 | 47.17042 | -151.21262 | 36346 ft | 462 kts | 282° |
| 2026-04-22 15:45 | 47.18285 | -151.30518 | 36339 ft | 461 kts | 282° |
| 2026-04-22 15:46 | 47.19512 | -151.39720 | 36346 ft | 462 kts | 282° |
| 2026-04-22 15:46 | 47.20734 | -151.48946 | 36349 ft | 462 kts | 281° |
| 2026-04-22 15:47 | 47.21960 | -151.58254 | 36337 ft | 462 kts | 281° |
| 2026-04-22 15:47 | 47.23162 | -151.67459 | 36327 ft | 460 kts | 281° |
| 2026-04-22 15:48 | 47.24362 | -151.76698 | 36327 ft | 460 kts | 281° |
| 2026-04-22 15:48 | 47.25554 | -151.85936 | 36324 ft | 460 kts | 281° |
| 2026-04-22 15:49 | 47.26731 | -151.95120 | 36318 ft | 460 kts | 280° |
| 2026-04-22 15:49 | 47.27906 | -152.04353 | 36317 ft | 461 kts | 280° |
| 2026-04-22 15:50 | 47.29075 | -152.13608 | 36313 ft | 460 kts | 280° |
| 2026-04-22 15:50 | 47.30230 | -152.22800 | 36304 ft | 459 kts | 280° |
| 2026-04-22 15:51 | 47.31384 | -152.32054 | 36297 ft | 460 kts | 280° |
| 2026-04-22 15:51 | 47.32524 | -152.41267 | 36299 ft | 460 kts | 280° |
| 2026-04-22 15:52 | 47.33667 | -152.50543 | 36287 ft | 458 kts | 280° |
| 2026-04-22 15:52 | 47.34784 | -152.59698 | 36288 ft | 457 kts | 279° |
| 2026-04-22 15:53 | 47.35903 | -152.68927 | 36293 ft | 458 kts | 279° |
| 2026-04-22 15:53 | 47.37011 | -152.78122 | 36287 ft | 458 kts | 279° |
| 2026-04-22 15:54 | 47.38118 | -152.87381 | 36292 ft | 458 kts | 279° |
| 2026-04-22 15:54 | 47.39213 | -152.96606 | 36286 ft | 458 kts | 278° |
| 2026-04-22 15:55 | 47.40296 | -153.05798 | 36273 ft | 458 kts | 278° |
| 2026-04-22 15:55 | 47.41378 | -153.15042 | 36275 ft | 458 kts | 278° |
| 2026-04-22 15:56 | 47.42453 | -153.24292 | 36251 ft | 458 kts | 278° |
| 2026-04-22 15:56 | 47.43516 | -153.33521 | 36252 ft | 458 kts | 278° |
| 2026-04-22 15:57 | 47.44569 | -153.42717 | 36238 ft | 457 kts | 278° |
| 2026-04-22 15:57 | 47.45620 | -153.51958 | 36238 ft | 457 kts | 278° |
| 2026-04-22 15:58 | 47.46663 | -153.61206 | 36233 ft | 458 kts | 278° |
| 2026-04-22 15:58 | 47.47695 | -153.70441 | 36238 ft | 458 kts | 277° |
| 2026-04-22 15:59 | 47.48730 | -153.79748 | 36229 ft | 458 kts | 277° |
| 2026-04-22 15:59 | 47.49751 | -153.89017 | 36219 ft | 458 kts | 277° |
| 2026-04-22 16:00 | 47.50765 | -153.98283 | 36209 ft | 459 kts | 277° |
| 2026-04-22 16:00 | 47.51768 | -154.07527 | 36218 ft | 457 kts | 277° |
| 2026-04-22 16:01 | 47.52764 | -154.16779 | 36210 ft | 456 kts | 277° |
| 2026-04-22 16:01 | 47.53751 | -154.26009 | 36203 ft | 456 kts | 277° |
| 2026-04-22 16:02 | 47.54731 | -154.35251 | 36205 ft | 456 kts | 277° |
| 2026-04-22 16:02 | 47.55704 | -154.44508 | 36186 ft | 456 kts | 277° |
| 2026-04-22 16:03 | 47.56668 | -154.53749 | 36177 ft | 456 kts | 276° |
| 2026-04-22 16:03 | 47.57622 | -154.62965 | 36178 ft | 457 kts | 276° |
| 2026-04-22 16:04 | 47.58571 | -154.72223 | 36184 ft | 455 kts | 276° |
| 2026-04-22 16:04 | 47.59516 | -154.81499 | 36173 ft | 454 kts | 276° |
| 2026-04-22 16:05 | 47.60448 | -154.90741 | 36173 ft | 455 kts | 276° |
| 2026-04-22 16:05 | 47.61369 | -154.99936 | 36171 ft | 455 kts | 275° |
| 2026-04-22 16:06 | 47.62289 | -155.09206 | 36153 ft | 455 kts | 275° |
| 2026-04-22 16:06 | 47.63196 | -155.18417 | 36145 ft | 455 kts | 275° |
| 2026-04-22 16:07 | 47.64099 | -155.27675 | 36142 ft | 455 kts | 275° |
| 2026-04-22 16:07 | 47.64996 | -155.36940 | 36143 ft | 454 kts | 275° |
| 2026-04-22 16:08 | 47.65883 | -155.46202 | 36140 ft | 454 kts | 275° |
| 2026-04-22 16:08 | 47.66758 | -155.55385 | 36127 ft | 454 kts | 275° |
| 2026-04-22 16:09 | 47.67631 | -155.64645 | 36122 ft | 453 kts | 275° |
| 2026-04-22 16:09 | 47.68493 | -155.73883 | 36119 ft | 454 kts | 274° |
| 2026-04-22 16:10 | 47.69348 | -155.83113 | 36114 ft | 453 kts | 275° |
| 2026-04-22 16:10 | 47.70198 | -155.92377 | 36110 ft | 453 kts | 274° |
| 2026-04-22 16:11 | 47.71038 | -156.01619 | 36099 ft | 454 kts | 274° |
| 2026-04-22 16:11 | 47.71870 | -156.10854 | 36099 ft | 454 kts | 274° |
| 2026-04-22 16:12 | 47.72698 | -156.20134 | 36085 ft | 453 kts | 274° |
| 2026-04-22 16:12 | 47.73517 | -156.29395 | 36087 ft | 453 kts | 274° |
| 2026-04-22 16:13 | 47.74325 | -156.38614 | 36073 ft | 451 kts | 274° |
| 2026-04-22 16:13 | 47.75126 | -156.47835 | 36070 ft | 451 kts | 274° |
| 2026-04-22 16:14 | 47.75916 | -156.57039 | 36059 ft | 450 kts | 274° |
| 2026-04-22 16:14 | 47.76695 | -156.66202 | 36056 ft | 450 kts | 273° |
| 2026-04-22 16:15 | 47.77472 | -156.75413 | 36063 ft | 450 kts | 273° |
| 2026-04-22 16:15 | 47.78236 | -156.84566 | 36046 ft | 449 kts | 273° |
| 2026-04-22 16:16 | 47.78992 | -156.93712 | 36043 ft | 448 kts | 273° |
| 2026-04-22 16:16 | 47.79742 | -157.02882 | 36033 ft | 448 kts | 272° |
| 2026-04-22 16:17 | 47.80487 | -157.12071 | 36028 ft | 447 kts | 272° |
| 2026-04-22 16:17 | 47.81223 | -157.21252 | 36021 ft | 448 kts | 272° |
| 2026-04-22 16:18 | 47.81950 | -157.30425 | 36011 ft | 448 kts | 272° |
| 2026-04-22 16:18 | 47.82665 | -157.39529 | 36008 ft | 448 kts | 272° |
| 2026-04-22 16:19 | 47.83380 | -157.48729 | 36001 ft | 448 kts | 272° |
| 2026-04-22 16:19 | 47.84088 | -157.57927 | 36000 ft | 448 kts | 272° |
| 2026-04-22 16:20 | 47.84782 | -157.67047 | 35990 ft | 447 kts | 271° |
| 2026-04-22 16:20 | 47.85476 | -157.76260 | 35988 ft | 447 kts | 271° |
| 2026-04-22 16:21 | 47.86153 | -157.85364 | 35986 ft | 447 kts | 271° |
| 2026-04-22 16:21 | 47.86832 | -157.94580 | 35978 ft | 446 kts | 271° |
| 2026-04-22 16:22 | 47.87825 | -158.08244 | 35975 ft | 444 kts | 271° |
| 2026-04-22 16:23 | 47.88801 | -158.21901 | 35970 ft | 444 kts | 271° |
| 2026-04-22 16:23 | 47.89445 | -158.31039 | 35963 ft | 442 kts | 271° |
| 2026-04-22 16:24 | 47.90389 | -158.44647 | 35958 ft | 442 kts | 271° |
| 2026-04-22 16:25 | 47.91009 | -158.53728 | 35960 ft | 441 kts | 271° |
| 2026-04-22 16:25 | 47.91920 | -158.67244 | 35960 ft | 439 kts | 270° |
| 2026-04-22 16:26 | 47.92523 | -158.76320 | 35960 ft | 438 kts | 270° |
| 2026-04-22 16:26 | 47.93112 | -158.85298 | 35955 ft | 438 kts | 270° |
| 2026-04-22 16:27 | 47.93697 | -158.94316 | 35954 ft | 437 kts | 270° |
| 2026-04-22 16:27 | 47.94270 | -159.03302 | 35948 ft | 438 kts | 270° |
| 2026-04-22 16:28 | 47.94838 | -159.12267 | 35948 ft | 436 kts | 270° |
| 2026-04-22 16:28 | 47.95397 | -159.21225 | 35944 ft | 435 kts | 270° |
| 2026-04-22 16:29 | 47.95951 | -159.30226 | 35946 ft | 436 kts | 270° |
| 2026-04-22 16:29 | 47.96495 | -159.39189 | 35942 ft | 436 kts | 270° |
| 2026-04-22 16:30 | 47.97034 | -159.48166 | 35934 ft | 435 kts | 270° |
| 2026-04-22 16:30 | 47.97563 | -159.57106 | 35932 ft | 432 kts | 270° |
| 2026-04-22 16:31 | 47.98082 | -159.65984 | 35933 ft | 433 kts | 269° |
| 2026-04-22 16:31 | 47.98595 | -159.74905 | 35941 ft | 433 kts | 269° |
| 2026-04-22 16:32 | 47.99104 | -159.83861 | 35944 ft | 432 kts | 269° |
| 2026-04-22 16:32 | 47.99603 | -159.92775 | 35937 ft | 433 kts | 269° |
| 2026-04-22 16:33 | 48.00086 | -160.01657 | 35941 ft | 433 kts | 268° |
| 2026-04-22 16:33 | 48.00477 | -160.10611 | 35948 ft | 431 kts | 268° |
| 2026-04-22 16:34 | 48.00850 | -160.19499 | 35947 ft | 431 kts | 268° |
| 2026-04-22 16:34 | 48.01219 | -160.28427 | 35945 ft | 430 kts | 268° |
| 2026-04-22 16:35 | 48.01579 | -160.37308 | 35937 ft | 431 kts | 267° |
| 2026-04-22 16:35 | 48.01931 | -160.46201 | 35951 ft | 431 kts | 267° |
| 2026-04-22 16:36 | 48.02278 | -160.55093 | 35941 ft | 431 kts | 267° |
| 2026-04-22 16:36 | 48.02618 | -160.63979 | 35947 ft | 429 kts | 267° |
| 2026-04-22 16:37 | 48.02950 | -160.72819 | 35960 ft | 428 kts | 266° |
| 2026-04-22 16:37 | 48.03274 | -160.81703 | 35947 ft | 429 kts | 266° |
| 2026-04-22 16:38 | 48.03592 | -160.90533 | 35954 ft | 428 kts | 266° |
| 2026-04-22 16:38 | 48.03904 | -160.99396 | 35932 ft | 427 kts | 266° |
| 2026-04-22 16:39 | 48.04208 | -161.08218 | 35952 ft | 427 kts | 266° |
| 2026-04-22 16:39 | 48.04504 | -161.17053 | 35952 ft | 427 kts | 266° |
| 2026-04-22 16:40 | 48.04795 | -161.25929 | 35931 ft | 428 kts | 266° |
| 2026-04-22 16:41 | 48.05218 | -161.39188 | 35924 ft | 428 kts | 267° |
| 2026-04-22 16:41 | 48.05492 | -161.48076 | 35934 ft | 429 kts | 267° |
| 2026-04-22 16:42 | 48.05760 | -161.56952 | 35921 ft | 428 kts | 267° |
| 2026-04-22 16:42 | 48.06021 | -161.65828 | 35907 ft | 427 kts | 266° |
| 2026-04-22 16:43 | 48.06273 | -161.74640 | 35936 ft | 428 kts | 266° |
| 2026-04-22 16:43 | 48.06520 | -161.83530 | 35934 ft | 427 kts | 266° |
| 2026-04-22 16:44 | 48.06760 | -161.92342 | 35916 ft | 427 kts | 266° |
| 2026-04-22 16:44 | 48.06993 | -162.01207 | 35901 ft | 427 kts | 266° |
| 2026-04-22 16:45 | 48.07219 | -162.10053 | 35920 ft | 427 kts | 266° |
| 2026-04-22 16:45 | 48.07438 | -162.18896 | 35908 ft | 426 kts | 266° |
| 2026-04-22 16:46 | 48.07649 | -162.27722 | 35933 ft | 427 kts | 266° |
| 2026-04-22 16:46 | 48.07855 | -162.36554 | 35939 ft | 426 kts | 267° |
| 2026-04-22 16:47 | 48.08054 | -162.45387 | 35913 ft | 425 kts | 266° |
| 2026-04-22 16:47 | 48.08244 | -162.54182 | 35928 ft | 427 kts | 266° |
| 2026-04-22 16:48 | 48.08429 | -162.63039 | 35929 ft | 426 kts | 266° |
| 2026-04-22 16:48 | 48.08607 | -162.71826 | 35927 ft | 425 kts | 266° |
| 2026-04-22 16:49 | 48.08780 | -162.80688 | 35903 ft | 425 kts | 266° |
| 2026-04-22 16:49 | 48.08943 | -162.89465 | 35911 ft | 425 kts | 266° |
| 2026-04-22 16:50 | 48.09100 | -162.98273 | 35898 ft | 425 kts | 266° |
| 2026-04-22 16:50 | 48.09249 | -163.07094 | 35913 ft | 425 kts | 266° |
| 2026-04-22 16:51 | 48.09396 | -163.15901 | 35899 ft | 424 kts | 266° |
| 2026-04-22 16:51 | 48.09531 | -163.24715 | 35852 ft | 424 kts | 266° |
| 2026-04-22 16:52 | 48.09661 | -163.33536 | 35976 ft | 430 kts | 266° |
| 2026-04-22 16:52 | 48.09725 | -163.37944 | 35872 ft | 422 kts | 266° |
| 2026-04-22 16:52 | 48.09787 | -163.42255 | 35922 ft | 420 kts | 266° |
| 2026-04-22 16:53 | 48.09902 | -163.51010 | 35905 ft | 422 kts | 266° |
| 2026-04-22 16:53 | 48.10012 | -163.59761 | 35882 ft | 421 kts | 266° |
| 2026-04-22 16:54 | 48.10114 | -163.68506 | 35879 ft | 421 kts | 265° |
| 2026-04-22 16:54 | 48.10209 | -163.77179 | 35881 ft | 421 kts | 265° |
| 2026-04-22 16:55 | 48.10300 | -163.85942 | 35878 ft | 420 kts | 265° |
| 2026-04-22 16:55 | 48.10383 | -163.94609 | 35870 ft | 421 kts | 265° |
| 2026-04-22 16:56 | 48.10457 | -164.03383 | 35885 ft | 421 kts | 265° |
| 2026-04-22 16:56 | 48.10528 | -164.12065 | 35864 ft | 420 kts | 265° |
| 2026-04-22 16:57 | 48.10590 | -164.20769 | 35860 ft | 420 kts | 265° |
| 2026-04-22 16:57 | 48.10647 | -164.29486 | 35876 ft | 422 kts | 265° |
| 2026-04-22 16:58 | 48.10690 | -164.36801 | 35842 ft | 420 kts | 265° |
| 2026-04-22 16:58 | 48.10739 | -164.46960 | 35846 ft | 424 kts | 265° |
| 2026-04-22 16:59 | 48.10775 | -164.55739 | 35838 ft | 424 kts | 265° |
| 2026-04-22 16:59 | 48.10807 | -164.64505 | 35840 ft | 420 kts | 266° |
| 2026-04-22 17:00 | 48.10830 | -164.73216 | 35837 ft | 421 kts | 265° |
| 2026-04-22 17:00 | 48.10852 | -164.86314 | 35851 ft | 422 kts | 265° |
| 2026-04-22 17:01 | 48.10859 | -164.95116 | 35859 ft | 422 kts | 265° |
| 2026-04-22 17:01 | 48.10861 | -165.03859 | 35835 ft | 421 kts | 265° |
| 2026-04-22 17:02 | 48.10854 | -165.12593 | 35859 ft | 422 kts | 265° |
| 2026-04-22 17:02 | 48.10841 | -165.21278 | 35840 ft | 421 kts | 265° |
| 2026-04-22 17:03 | 48.10821 | -165.30008 | 35839 ft | 421 kts | 265° |
| 2026-04-22 17:03 | 48.10794 | -165.38770 | 35838 ft | 422 kts | 265° |
| 2026-04-22 17:04 | 48.10761 | -165.47533 | 35824 ft | 423 kts | 265° |
| 2026-04-22 17:04 | 48.10722 | -165.56303 | 35809 ft | 422 kts | 265° |
| 2026-04-22 17:05 | 48.10676 | -165.65027 | 35796 ft | 422 kts | 265° |
| 2026-04-22 17:05 | 48.10623 | -165.73813 | 35809 ft | 423 kts | 265° |
| 2026-04-22 17:06 | 48.10563 | -165.82570 | 35810 ft | 423 kts | 265° |
| 2026-04-22 17:06 | 48.10497 | -165.91341 | 35794 ft | 423 kts | 265° |
| 2026-04-22 17:07 | 48.10424 | -166.00070 | 35786 ft | 423 kts | 265° |
| 2026-04-22 17:07 | 48.10344 | -166.08913 | 35791 ft | 423 kts | 265° |
| 2026-04-22 17:08 | 48.10260 | -166.17600 | 35794 ft | 421 kts | 265° |
| 2026-04-22 17:08 | 48.10166 | -166.26375 | 35796 ft | 423 kts | 265° |
| 2026-04-22 17:09 | 48.10066 | -166.35164 | 35804 ft | 423 kts | 265° |
| 2026-04-22 17:09 | 48.09959 | -166.43913 | 35787 ft | 422 kts | 265° |
| 2026-04-22 17:10 | 48.09846 | -166.52681 | 35789 ft | 425 kts | 265° |
| 2026-04-22 17:10 | 48.09726 | -166.61508 | 35785 ft | 424 kts | 265° |
| 2026-04-22 17:11 | 48.09599 | -166.70276 | 35779 ft | 424 kts | 265° |
| 2026-04-22 17:11 | 48.09466 | -166.79074 | 35785 ft | 423 kts | 265° |
| 2026-04-22 17:12 | 48.09327 | -166.87797 | 35779 ft | 424 kts | 265° |
| 2026-04-22 17:12 | 48.09180 | -166.96588 | 35773 ft | 424 kts | 265° |
| 2026-04-22 17:13 | 48.09027 | -167.05405 | 35774 ft | 423 kts | 265° |
| 2026-04-22 17:13 | 48.08867 | -167.14165 | 35766 ft | 424 kts | 265° |
| 2026-04-22 17:14 | 48.08701 | -167.22932 | 35767 ft | 426 kts | 265° |
| 2026-04-22 17:14 | 48.08526 | -167.31770 | 35763 ft | 425 kts | 265° |
| 2026-04-22 17:15 | 48.08347 | -167.40532 | 35754 ft | 424 kts | 265° |
| 2026-04-22 17:15 | 48.08159 | -167.49352 | 35743 ft | 425 kts | 265° |
| 2026-04-22 17:16 | 48.07964 | -167.58183 | 35754 ft | 425 kts | 265° |
| 2026-04-22 17:16 | 48.07764 | -167.66948 | 35745 ft | 425 kts | 264° |
| 2026-04-22 17:17 | 48.07556 | -167.75722 | 35738 ft | 426 kts | 264° |
| 2026-04-22 17:17 | 48.07342 | -167.84560 | 35744 ft | 425 kts | 264° |
| 2026-04-22 17:18 | 48.07121 | -167.93323 | 35731 ft | 425 kts | 264° |
| 2026-04-22 17:18 | 48.06894 | -168.02118 | 35731 ft | 425 kts | 264° |
| 2026-04-22 17:19 | 48.06419 | -168.19710 | 35737 ft | 425 kts | 264° |
| 2026-04-22 17:20 | 48.05916 | -168.37347 | 35729 ft | 425 kts | 264° |
| 2026-04-22 17:21 | 48.05522 | -168.50523 | 35713 ft | 426 kts | 264° |
| 2026-04-22 17:22 | 48.05113 | -168.63751 | 35705 ft | 426 kts | 264° |
| 2026-04-22 17:23 | 48.04688 | -168.76932 | 35716 ft | 426 kts | 264° |
| 2026-04-22 17:23 | 48.04246 | -168.90169 | 35711 ft | 425 kts | 264° |
| 2026-04-22 17:24 | 48.03945 | -168.98949 | 35723 ft | 425 kts | 264° |
| 2026-04-22 17:24 | 48.03638 | -169.07730 | 35717 ft | 424 kts | 264° |
| 2026-04-22 17:25 | 48.03325 | -169.16458 | 35704 ft | 424 kts | 264° |
| 2026-04-22 17:25 | 48.03003 | -169.25269 | 35699 ft | 424 kts | 264° |
| 2026-04-22 17:26 | 48.02676 | -169.34003 | 35688 ft | 425 kts | 264° |
| 2026-04-22 17:26 | 48.02341 | -169.42795 | 35685 ft | 426 kts | 264° |
| 2026-04-22 17:27 | 48.01998 | -169.51608 | 35682 ft | 425 kts | 264° |
| 2026-04-22 17:27 | 48.01650 | -169.60400 | 35685 ft | 425 kts | 264° |
| 2026-04-22 17:28 | 48.01295 | -169.69176 | 35685 ft | 425 kts | 263° |
| 2026-04-22 17:28 | 48.00934 | -169.77946 | 35677 ft | 425 kts | 263° |
| 2026-04-22 17:29 | 48.00568 | -169.86717 | 35675 ft | 426 kts | 263° |
| 2026-04-22 17:29 | 48.00193 | -169.95519 | 35666 ft | 426 kts | 264° |
| 2026-04-22 17:30 | 47.99781 | -170.04286 | 35683 ft | 425 kts | 263° |
| 2026-04-22 17:30 | 47.99285 | -170.13077 | 35671 ft | 425 kts | 262° |
| 2026-04-22 17:31 | 47.98783 | -170.21843 | 35658 ft | 425 kts | 262° |
| 2026-04-22 17:31 | 47.98280 | -170.30553 | 35649 ft | 424 kts | 263° |
| 2026-04-22 17:32 | 47.97768 | -170.39302 | 35636 ft | 425 kts | 262° |
| 2026-04-22 17:32 | 47.97247 | -170.48097 | 35640 ft | 425 kts | 262° |
| 2026-04-22 17:33 | 47.96725 | -170.56812 | 35631 ft | 425 kts | 263° |
| 2026-04-22 17:33 | 47.96197 | -170.65541 | 35628 ft | 425 kts | 262° |
| 2026-04-22 17:34 | 47.95660 | -170.74291 | 35634 ft | 425 kts | 262° |
| 2026-04-22 17:34 | 47.95113 | -170.83093 | 35618 ft | 425 kts | 262° |
| 2026-04-22 17:35 | 47.94564 | -170.91834 | 35631 ft | 424 kts | 262° |
| 2026-04-22 17:35 | 47.94011 | -171.00526 | 35618 ft | 425 kts | 262° |
| 2026-04-22 17:36 | 47.93444 | -171.09306 | 35620 ft | 425 kts | 262° |
| 2026-04-22 17:36 | 47.92876 | -171.18039 | 35612 ft | 425 kts | 262° |
| 2026-04-22 17:37 | 47.92298 | -171.26793 | 35626 ft | 425 kts | 262° |
| 2026-04-22 17:37 | 47.91716 | -171.35542 | 35619 ft | 425 kts | 262° |
| 2026-04-22 17:38 | 47.91129 | -171.44238 | 35612 ft | 425 kts | 262° |
| 2026-04-22 17:38 | 47.90535 | -171.52942 | 35600 ft | 425 kts | 262° |
| 2026-04-22 17:39 | 47.89932 | -171.61685 | 35597 ft | 425 kts | 262° |
| 2026-04-22 17:40 | 47.89014 | -171.74811 | 35622 ft | 425 kts | 262° |
| 2026-04-22 17:40 | 47.88398 | -171.83502 | 35615 ft | 425 kts | 262° |
| 2026-04-22 17:41 | 47.87767 | -171.92279 | 35610 ft | 426 kts | 261° |
| 2026-04-22 17:41 | 47.87133 | -172.01030 | 35604 ft | 425 kts | 262° |
| 2026-04-22 17:42 | 47.86497 | -172.09706 | 35608 ft | 424 kts | 262° |
| 2026-04-22 17:42 | 47.85850 | -172.18442 | 35591 ft | 426 kts | 262° |
| 2026-04-22 17:43 | 47.85197 | -172.27161 | 35593 ft | 426 kts | 262° |
| 2026-04-22 17:43 | 47.84540 | -172.35861 | 35583 ft | 426 kts | 262° |
| 2026-04-22 17:44 | 47.83872 | -172.44603 | 35588 ft | 424 kts | 262° |
| 2026-04-22 17:44 | 47.83201 | -172.53302 | 35583 ft | 424 kts | 262° |
| 2026-04-22 17:45 | 47.82523 | -172.62010 | 35583 ft | 425 kts | 262° |
| 2026-04-22 17:45 | 47.81841 | -172.70671 | 35577 ft | 426 kts | 261° |
| 2026-04-22 17:46 | 47.81143 | -172.79446 | 35573 ft | 426 kts | 261° |
| 2026-04-22 17:46 | 47.80447 | -172.88129 | 35559 ft | 425 kts | 261° |
| 2026-04-22 17:47 | 47.79743 | -172.96806 | 35572 ft | 425 kts | 261° |
| 2026-04-22 17:47 | 47.79030 | -173.05534 | 35578 ft | 425 kts | 261° |
| 2026-04-22 17:48 | 47.78434 | -173.12747 | 35568 ft | 426 kts | 261° |
| 2026-04-22 17:48 | 47.77586 | -173.22928 | 35571 ft | 426 kts | 261° |
| 2026-04-22 17:49 | 47.76855 | -173.31621 | 35568 ft | 426 kts | 261° |
| 2026-04-22 17:49 | 47.76117 | -173.40315 | 35558 ft | 426 kts | 261° |
| 2026-04-22 17:50 | 47.75369 | -173.49033 | 35560 ft | 426 kts | 261° |
| 2026-04-22 17:50 | 47.74617 | -173.57724 | 35555 ft | 427 kts | 261° |
| 2026-04-22 17:51 | 47.73855 | -173.66457 | 35557 ft | 427 kts | 260° |
| 2026-04-22 17:51 | 47.73088 | -173.75169 | 35564 ft | 426 kts | 261° |
| 2026-04-22 17:52 | 47.72316 | -173.83862 | 35542 ft | 427 kts | 260° |
| 2026-04-22 17:52 | 47.71536 | -173.92572 | 35562 ft | 427 kts | 260° |
| 2026-04-22 17:53 | 47.70749 | -174.01268 | 35549 ft | 427 kts | 260° |
| 2026-04-22 17:53 | 47.69954 | -174.09992 | 35547 ft | 426 kts | 260° |
| 2026-04-22 17:54 | 47.69156 | -174.18666 | 35554 ft | 427 kts | 260° |
| 2026-04-22 17:54 | 47.68346 | -174.27402 | 35548 ft | 428 kts | 260° |
| 2026-04-22 17:55 | 47.67530 | -174.36125 | 35550 ft | 427 kts | 261° |
| 2026-04-22 17:55 | 47.66711 | -174.44806 | 35545 ft | 428 kts | 260° |
| 2026-04-22 17:56 | 47.65883 | -174.53507 | 35529 ft | 429 kts | 260° |
| 2026-04-22 17:56 | 47.65048 | -174.62212 | 35539 ft | 428 kts | 261° |
| 2026-04-22 17:57 | 47.64206 | -174.70929 | 35546 ft | 429 kts | 260° |
| 2026-04-22 17:57 | 47.63356 | -174.79656 | 35542 ft | 427 kts | 259° |
| 2026-04-22 17:58 | 47.62500 | -174.88367 | 35543 ft | 427 kts | 260° |
| 2026-04-22 17:58 | 47.61641 | -174.97034 | 35532 ft | 429 kts | 259° |
| 2026-04-22 17:59 | 47.60770 | -175.05749 | 35533 ft | 428 kts | 260° |
| 2026-04-22 17:59 | 47.59898 | -175.14427 | 35529 ft | 428 kts | 259° |
| 2026-04-22 18:00 | 47.59161 | -175.21693 | 35530 ft | 428 kts | 259° |
| 2026-04-22 18:00 | 47.58125 | -175.31827 | 35543 ft | 429 kts | 260° |
| 2026-04-22 18:01 | 47.57232 | -175.40520 | 35535 ft | 429 kts | 260° |
| 2026-04-22 18:01 | 47.56323 | -175.49268 | 35525 ft | 430 kts | 260° |
| 2026-04-22 18:02 | 47.55409 | -175.57999 | 35530 ft | 429 kts | 260° |
| 2026-04-22 18:02 | 47.54494 | -175.66682 | 35528 ft | 430 kts | 259° |
| 2026-04-22 18:03 | 47.53566 | -175.75426 | 35526 ft | 430 kts | 259° |
| 2026-04-22 18:03 | 47.52637 | -175.84117 | 35540 ft | 429 kts | 259° |
| 2026-04-22 18:04 | 47.51699 | -175.92821 | 35519 ft | 430 kts | 259° |
| 2026-04-22 18:04 | 47.50753 | -176.01526 | 35540 ft | 430 kts | 259° |
| 2026-04-22 18:05 | 47.49802 | -176.10236 | 35524 ft | 430 kts | 259° |
| 2026-04-22 18:05 | 47.48842 | -176.18942 | 35529 ft | 431 kts | 259° |
| 2026-04-22 18:06 | 47.47875 | -176.27666 | 35516 ft | 431 kts | 259° |
| 2026-04-22 18:06 | 47.46905 | -176.36343 | 35532 ft | 431 kts | 259° |
| 2026-04-22 18:07 | 47.45924 | -176.45050 | 35510 ft | 433 kts | 259° |
| 2026-04-22 18:07 | 47.44927 | -176.53845 | 35517 ft | 433 kts | 259° |
| 2026-04-22 18:08 | 47.43928 | -176.62595 | 35507 ft | 434 kts | 259° |
| 2026-04-22 18:08 | 47.42926 | -176.71323 | 35509 ft | 435 kts | 258° |
| 2026-04-22 18:09 | 47.41907 | -176.80112 | 35514 ft | 434 kts | 258° |
| 2026-04-22 18:09 | 47.40884 | -176.88893 | 35515 ft | 434 kts | 258° |
| 2026-04-22 18:10 | 47.39856 | -176.97646 | 35518 ft | 435 kts | 259° |
| 2026-04-22 18:10 | 47.38824 | -177.06387 | 35519 ft | 435 kts | 259° |
| 2026-04-22 18:11 | 47.37776 | -177.15190 | 35515 ft | 436 kts | 259° |
| 2026-04-22 18:11 | 47.36723 | -177.23976 | 35520 ft | 436 kts | 259° |
| 2026-04-22 18:12 | 47.35664 | -177.32761 | 35504 ft | 436 kts | 258° |
| 2026-04-22 18:12 | 47.34781 | -177.40037 | 35522 ft | 435 kts | 259° |
| 2026-04-22 18:13 | 47.33531 | -177.50267 | 35512 ft | 437 kts | 258° |
| 2026-04-22 18:13 | 47.32450 | -177.59052 | 35517 ft | 437 kts | 258° |
| 2026-04-22 18:14 | 47.31361 | -177.67839 | 35519 ft | 438 kts | 258° |
| 2026-04-22 18:14 | 47.30265 | -177.76631 | 35519 ft | 438 kts | 258° |
| 2026-04-22 18:15 | 47.29160 | -177.85437 | 35512 ft | 438 kts | 258° |
| 2026-04-22 18:15 | 47.28050 | -177.94222 | 35497 ft | 439 kts | 258° |
| 2026-04-22 18:16 | 47.26931 | -178.03024 | 35515 ft | 439 kts | 258° |
| 2026-04-22 18:16 | 47.25805 | -178.11830 | 35521 ft | 439 kts | 258° |
| 2026-04-22 18:17 | 47.24668 | -178.20653 | 35532 ft | 439 kts | 258° |
| 2026-04-22 18:17 | 47.23525 | -178.29471 | 35516 ft | 440 kts | 258° |
| 2026-04-22 18:18 | 47.22371 | -178.38318 | 35530 ft | 441 kts | 258° |
| 2026-04-22 18:18 | 47.21214 | -178.47131 | 35520 ft | 441 kts | 258° |
| 2026-04-22 18:19 | 47.20049 | -178.55955 | 35525 ft | 442 kts | 258° |
| 2026-04-22 18:19 | 47.18871 | -178.64816 | 35505 ft | 442 kts | 258° |
| 2026-04-22 18:20 | 47.17695 | -178.73612 | 35512 ft | 442 kts | 257° |
| 2026-04-22 18:20 | 47.16506 | -178.82449 | 35513 ft | 442 kts | 257° |
| 2026-04-22 18:21 | 47.15315 | -178.91251 | 35521 ft | 442 kts | 257° |
| 2026-04-22 18:21 | 47.14112 | -179.00081 | 35524 ft | 443 kts | 257° |
| 2026-04-22 18:22 | 47.12898 | -179.08939 | 35522 ft | 442 kts | 258° |
| 2026-04-22 18:22 | 47.11688 | -179.17722 | 35512 ft | 444 kts | 257° |
| 2026-04-22 18:23 | 47.10455 | -179.26604 | 35523 ft | 443 kts | 258° |
| 2026-04-22 18:23 | 47.09226 | -179.35416 | 35516 ft | 443 kts | 257° |
| 2026-04-22 18:24 | 47.07358 | -179.48706 | 35516 ft | 444 kts | 258° |
| 2026-04-22 18:25 | 47.05477 | -179.61972 | 35524 ft | 445 kts | 257° |
| 2026-04-22 18:25 | 47.04218 | -179.70787 | 35544 ft | 446 kts | 257° |
| 2026-04-22 18:26 | 47.02305 | -179.84090 | 35535 ft | 445 kts | 257° |
| 2026-04-22 18:26 | 47.01026 | -179.92929 | 35543 ft | 445 kts | 257° |
| 2026-04-22 18:27 | 46.99855 | 179.98175 | 35531 ft | 446 kts | 262° |
| 2026-04-22 18:27 | 46.99320 | 179.89113 | 35517 ft | 449 kts | 264° |
| 2026-04-22 18:28 | 46.98839 | 179.80049 | 35526 ft | 450 kts | 264° |
| 2026-04-22 18:28 | 46.98329 | 179.70931 | 35528 ft | 450 kts | 264° |
| 2026-04-22 18:29 | 46.97808 | 179.61816 | 35511 ft | 450 kts | 264° |
| 2026-04-22 18:29 | 46.97280 | 179.52731 | 35525 ft | 450 kts | 264° |
| 2026-04-22 18:30 | 46.96468 | 179.39075 | 35521 ft | 451 kts | 264° |
| 2026-04-22 18:31 | 46.95916 | 179.29959 | 35533 ft | 452 kts | 263° |
| 2026-04-22 18:31 | 46.95354 | 179.20807 | 35534 ft | 451 kts | 263° |
| 2026-04-22 18:32 | 46.94790 | 179.11755 | 35540 ft | 452 kts | 263° |
| 2026-04-22 18:32 | 46.94214 | 179.02635 | 35546 ft | 451 kts | 263° |
| 2026-04-22 18:33 | 46.93629 | 178.93494 | 35533 ft | 453 kts | 263° |
| 2026-04-22 18:33 | 46.93036 | 178.84338 | 35536 ft | 454 kts | 263° |
| 2026-04-22 18:34 | 46.92436 | 178.75195 | 35531 ft | 454 kts | 263° |
| 2026-04-22 18:34 | 46.91829 | 178.66071 | 35534 ft | 453 kts | 263° |
| 2026-04-22 18:35 | 46.91212 | 178.56898 | 35548 ft | 454 kts | 263° |
| 2026-04-22 18:35 | 46.90589 | 178.47749 | 35541 ft | 455 kts | 263° |
| 2026-04-22 18:36 | 46.89955 | 178.38550 | 35542 ft | 455 kts | 263° |
| 2026-04-22 18:36 | 46.89316 | 178.29391 | 35550 ft | 455 kts | 263° |
| 2026-04-22 18:37 | 46.88668 | 178.20198 | 35546 ft | 454 kts | 263° |
| 2026-04-22 18:37 | 46.88017 | 178.11072 | 35537 ft | 455 kts | 263° |
| 2026-04-22 18:38 | 46.87354 | 178.01895 | 35549 ft | 454 kts | 263° |
| 2026-04-22 18:38 | 46.86686 | 177.92746 | 35540 ft | 456 kts | 263° |
| 2026-04-22 18:39 | 46.85665 | 177.78944 | 35546 ft | 456 kts | 263° |
| 2026-04-22 18:39 | 46.84974 | 177.69734 | 35536 ft | 456 kts | 263° |
| 2026-04-22 18:40 | 46.84281 | 177.60599 | 35562 ft | 457 kts | 263° |
| 2026-04-22 18:40 | 46.83577 | 177.51416 | 35561 ft | 457 kts | 263° |
| 2026-04-22 18:41 | 46.82865 | 177.42227 | 35540 ft | 457 kts | 263° |
| 2026-04-22 18:41 | 46.82144 | 177.33038 | 35544 ft | 457 kts | 263° |
| 2026-04-22 18:42 | 46.81419 | 177.23871 | 35550 ft | 458 kts | 262° |
| 2026-04-22 18:42 | 46.80683 | 177.14671 | 35551 ft | 457 kts | 263° |
| 2026-04-22 18:43 | 46.79938 | 177.05446 | 35547 ft | 458 kts | 263° |
| 2026-04-22 18:43 | 46.79188 | 176.96251 | 35564 ft | 458 kts | 263° |
| 2026-04-22 18:44 | 46.78433 | 176.87094 | 35554 ft | 458 kts | 263° |
| 2026-04-22 18:44 | 46.77664 | 176.77875 | 35555 ft | 459 kts | 263° |
| 2026-04-22 18:45 | 46.76890 | 176.68665 | 35580 ft | 457 kts | 263° |
| 2026-04-22 18:45 | 46.76113 | 176.59515 | 35568 ft | 458 kts | 263° |
| 2026-04-22 18:46 | 46.75322 | 176.50281 | 35571 ft | 459 kts | 263° |
| 2026-04-22 18:46 | 46.74526 | 176.41087 | 35560 ft | 459 kts | 263° |
| 2026-04-22 18:47 | 46.73722 | 176.31885 | 35571 ft | 459 kts | 262° |
| 2026-04-22 18:47 | 46.72911 | 176.22693 | 35580 ft | 460 kts | 262° |
| 2026-04-22 18:48 | 46.72090 | 176.13477 | 35580 ft | 459 kts | 262° |
| 2026-04-22 18:48 | 46.71263 | 176.04274 | 35572 ft | 459 kts | 262° |
| 2026-04-22 18:49 | 46.70430 | 175.95099 | 35578 ft | 459 kts | 263° |
| 2026-04-22 18:49 | 46.69591 | 175.85933 | 35576 ft | 460 kts | 263° |
| 2026-04-22 18:50 | 46.68738 | 175.76691 | 35559 ft | 460 kts | 263° |
| 2026-04-22 18:50 | 46.67883 | 175.67522 | 35575 ft | 460 kts | 263° |
| 2026-04-22 18:51 | 46.67018 | 175.58304 | 35573 ft | 462 kts | 263° |
| 2026-04-22 18:51 | 46.66145 | 175.49107 | 35575 ft | 460 kts | 263° |
| 2026-04-22 18:52 | 46.65264 | 175.39916 | 35581 ft | 460 kts | 263° |
| 2026-04-22 18:52 | 46.64378 | 175.30730 | 35578 ft | 461 kts | 262° |
| 2026-04-22 18:53 | 46.63478 | 175.21486 | 35571 ft | 461 kts | 262° |
| 2026-04-22 18:53 | 46.62579 | 175.12328 | 35604 ft | 461 kts | 262° |
| 2026-04-22 18:54 | 46.61665 | 175.03091 | 35593 ft | 461 kts | 262° |
| 2026-04-22 18:54 | 46.60743 | 174.93863 | 35598 ft | 460 kts | 262° |
| 2026-04-22 18:55 | 46.59819 | 174.84692 | 35612 ft | 460 kts | 262° |
| 2026-04-22 18:55 | 46.58886 | 174.75494 | 35594 ft | 462 kts | 262° |
| 2026-04-22 18:56 | 46.57948 | 174.66345 | 35606 ft | 462 kts | 262° |
| 2026-04-22 18:56 | 46.57000 | 174.57153 | 35593 ft | 461 kts | 262° |
| 2026-04-22 18:57 | 46.56041 | 174.47939 | 35603 ft | 460 kts | 262° |
| 2026-04-22 18:57 | 46.55080 | 174.38771 | 35604 ft | 461 kts | 262° |
| 2026-04-22 18:58 | 46.54110 | 174.29591 | 35615 ft | 462 kts | 262° |
| 2026-04-22 18:58 | 46.53132 | 174.20416 | 35605 ft | 460 kts | 262° |
| 2026-04-22 18:59 | 46.52150 | 174.11284 | 35598 ft | 461 kts | 262° |
| 2026-04-22 18:59 | 46.51162 | 174.02148 | 35602 ft | 461 kts | 262° |
| 2026-04-22 19:00 | 46.50164 | 173.92995 | 35624 ft | 461 kts | 262° |
| 2026-04-22 19:00 | 46.49153 | 173.83800 | 35619 ft | 461 kts | 262° |
| 2026-04-22 19:01 | 46.48138 | 173.74631 | 35610 ft | 461 kts | 262° |
| 2026-04-22 19:01 | 46.47124 | 173.65532 | 35640 ft | 460 kts | 262° |
| 2026-04-22 19:02 | 46.46095 | 173.56393 | 35617 ft | 461 kts | 262° |
| 2026-04-22 19:02 | 46.45054 | 173.47205 | 35612 ft | 461 kts | 262° |
| 2026-04-22 19:03 | 46.44015 | 173.38098 | 35616 ft | 461 kts | 262° |
| 2026-04-22 19:03 | 46.42967 | 173.28975 | 35627 ft | 461 kts | 261° |
| 2026-04-22 19:04 | 46.41908 | 173.19823 | 35623 ft | 462 kts | 262° |
| 2026-04-22 19:04 | 46.40839 | 173.10661 | 35639 ft | 461 kts | 262° |
| 2026-04-22 19:05 | 46.39771 | 173.01573 | 35635 ft | 461 kts | 262° |
| 2026-04-22 19:05 | 46.38692 | 172.92450 | 35625 ft | 460 kts | 262° |
| 2026-04-22 19:06 | 46.37609 | 172.83368 | 35646 ft | 460 kts | 262° |
| 2026-04-22 19:07 | 46.35975 | 172.69768 | 35648 ft | 459 kts | 262° |
| 2026-04-22 19:07 | 46.34873 | 172.60683 | 35654 ft | 459 kts | 262° |
| 2026-04-22 19:08 | 46.33769 | 172.51630 | 35654 ft | 459 kts | 262° |
| 2026-04-22 19:08 | 46.32653 | 172.42549 | 35639 ft | 459 kts | 262° |
| 2026-04-22 19:09 | 46.31527 | 172.33453 | 35651 ft | 459 kts | 261° |
| 2026-04-22 19:09 | 46.30407 | 172.24472 | 35663 ft | 458 kts | 261° |
| 2026-04-22 19:10 | 46.29266 | 172.15378 | 35657 ft | 458 kts | 261° |
| 2026-04-22 19:10 | 46.28133 | 172.06400 | 35664 ft | 458 kts | 261° |
| 2026-04-22 19:11 | 46.26983 | 171.97350 | 35671 ft | 458 kts | 261° |
| 2026-04-22 19:11 | 46.25832 | 171.88353 | 35665 ft | 458 kts | 261° |
| 2026-04-22 19:12 | 46.24665 | 171.79297 | 35673 ft | 457 kts | 261° |
| 2026-04-22 19:12 | 46.23504 | 171.70338 | 35686 ft | 457 kts | 261° |
| 2026-04-22 19:13 | 46.22334 | 171.61372 | 35684 ft | 457 kts | 262° |
| 2026-04-22 19:13 | 46.21151 | 171.52371 | 35679 ft | 457 kts | 262° |
| 2026-04-22 19:14 | 46.19968 | 171.43414 | 35683 ft | 455 kts | 261° |
| 2026-04-22 19:14 | 46.18774 | 171.34433 | 35693 ft | 456 kts | 261° |
| 2026-04-22 19:15 | 46.17773 | 171.26950 | 35685 ft | 457 kts | 261° |
| 2026-04-22 19:15 | 46.16369 | 171.16516 | 35694 ft | 457 kts | 261° |
| 2026-04-22 19:16 | 46.15155 | 171.07564 | 35681 ft | 456 kts | 261° |
| 2026-04-22 19:16 | 46.13938 | 170.98634 | 35696 ft | 455 kts | 261° |
| 2026-04-22 19:17 | 46.12718 | 170.89739 | 35702 ft | 455 kts | 261° |
| 2026-04-22 19:17 | 46.11486 | 170.80815 | 35692 ft | 454 kts | 261° |
| 2026-04-22 19:18 | 46.10247 | 170.71890 | 35702 ft | 454 kts | 261° |
| 2026-04-22 19:18 | 46.09015 | 170.63068 | 35710 ft | 453 kts | 261° |
| 2026-04-22 19:19 | 46.07769 | 170.54205 | 35704 ft | 453 kts | 261° |
| 2026-04-22 19:19 | 46.06514 | 170.45320 | 35707 ft | 451 kts | 261° |
| 2026-04-22 19:20 | 46.05264 | 170.36530 | 35713 ft | 451 kts | 261° |
| 2026-04-22 19:20 | 46.04002 | 170.27702 | 35724 ft | 451 kts | 260° |
| 2026-04-22 19:21 | 46.02737 | 170.18903 | 35729 ft | 451 kts | 260° |
| 2026-04-22 19:21 | 46.01466 | 170.10109 | 35719 ft | 451 kts | 260° |
| 2026-04-22 19:22 | 46.00185 | 170.01288 | 35731 ft | 450 kts | 261° |
| 2026-04-22 19:22 | 45.98883 | 169.92551 | 35741 ft | 450 kts | 260° |
| 2026-04-22 19:23 | 45.97557 | 169.83829 | 35741 ft | 448 kts | 260° |
| 2026-04-22 19:23 | 45.96218 | 169.75075 | 35741 ft | 447 kts | 260° |
| 2026-04-22 19:24 | 45.94890 | 169.66429 | 35746 ft | 446 kts | 260° |
| 2026-04-22 19:24 | 45.93554 | 169.57767 | 35743 ft | 447 kts | 260° |
| 2026-04-22 19:25 | 45.92208 | 169.49091 | 35753 ft | 446 kts | 260° |
| 2026-04-22 19:25 | 45.90859 | 169.40448 | 35759 ft | 444 kts | 260° |
| 2026-04-22 19:26 | 45.89508 | 169.31831 | 35769 ft | 444 kts | 259° |
| 2026-04-22 19:26 | 45.88145 | 169.23178 | 35768 ft | 444 kts | 259° |
| 2026-04-22 19:27 | 45.86793 | 169.14639 | 35778 ft | 442 kts | 260° |
| 2026-04-22 19:27 | 45.85428 | 169.06055 | 35781 ft | 442 kts | 260° |
| 2026-04-22 19:28 | 45.84057 | 168.97484 | 35769 ft | 441 kts | 260° |
| 2026-04-22 19:28 | 45.82677 | 168.88898 | 35771 ft | 440 kts | 260° |
| 2026-04-22 19:29 | 45.81302 | 168.80386 | 35777 ft | 441 kts | 260° |
| 2026-04-22 19:29 | 45.79921 | 168.71880 | 35774 ft | 440 kts | 260° |
| 2026-04-22 19:30 | 45.78768 | 168.64803 | 35778 ft | 439 kts | 259° |
| 2026-04-22 19:30 | 45.77134 | 168.54843 | 35782 ft | 439 kts | 259° |
| 2026-04-22 19:31 | 45.75739 | 168.46376 | 35783 ft | 438 kts | 259° |
| 2026-04-22 19:31 | 45.74343 | 168.37947 | 35789 ft | 438 kts | 260° |
| 2026-04-22 19:32 | 45.72930 | 168.29457 | 35802 ft | 438 kts | 259° |
| 2026-04-22 19:32 | 45.71511 | 168.20970 | 35807 ft | 439 kts | 259° |
| 2026-04-22 19:33 | 45.70098 | 168.12566 | 35818 ft | 436 kts | 259° |
| 2026-04-22 19:33 | 45.68681 | 168.04175 | 35813 ft | 436 kts | 259° |
| 2026-04-22 19:34 | 45.67257 | 167.95787 | 35809 ft | 436 kts | 259° |
| 2026-04-22 19:34 | 45.65831 | 167.87422 | 35816 ft | 434 kts | 259° |
| 2026-04-22 19:35 | 45.64394 | 167.79044 | 35820 ft | 434 kts | 259° |
| 2026-04-22 19:35 | 45.62964 | 167.70729 | 35814 ft | 433 kts | 259° |
| 2026-04-22 19:36 | 45.61518 | 167.62367 | 35814 ft | 434 kts | 259° |
| 2026-04-22 19:36 | 45.60073 | 167.54053 | 35825 ft | 431 kts | 259° |
| 2026-04-22 19:37 | 45.58636 | 167.45824 | 35826 ft | 430 kts | 259° |
| 2026-04-22 19:37 | 45.57190 | 167.37573 | 35820 ft | 431 kts | 259° |
| 2026-04-22 19:38 | 45.55738 | 167.29336 | 35844 ft | 430 kts | 259° |
| 2026-04-22 19:38 | 45.54274 | 167.21065 | 35844 ft | 429 kts | 259° |
| 2026-04-22 19:39 | 45.52817 | 167.12869 | 35846 ft | 429 kts | 258° |
| 2026-04-22 19:39 | 45.51353 | 167.04671 | 35842 ft | 428 kts | 258° |
| 2026-04-22 19:40 | 45.49882 | 166.96478 | 35845 ft | 428 kts | 258° |
| 2026-04-22 19:40 | 45.48409 | 166.88303 | 35856 ft | 427 kts | 258° |
| 2026-04-22 19:41 | 45.46932 | 166.80144 | 35859 ft | 426 kts | 258° |
| 2026-04-22 19:41 | 45.45456 | 166.72021 | 35857 ft | 427 kts | 258° |
| 2026-04-22 19:42 | 45.43968 | 166.63881 | 35860 ft | 425 kts | 259° |
| 2026-04-22 19:42 | 45.42482 | 166.55782 | 35861 ft | 423 kts | 258° |
| 2026-04-22 19:43 | 45.40248 | 166.43665 | 35864 ft | 424 kts | 258° |
| 2026-04-22 19:43 | 45.38752 | 166.35605 | 35863 ft | 423 kts | 258° |
| 2026-04-22 19:44 | 45.37251 | 166.27542 | 35867 ft | 423 kts | 258° |
| 2026-04-22 19:44 | 45.35743 | 166.19478 | 35870 ft | 423 kts | 258° |
| 2026-04-22 19:45 | 45.34241 | 166.11491 | 35875 ft | 421 kts | 258° |
| 2026-04-22 19:45 | 45.32725 | 166.03451 | 35867 ft | 421 kts | 258° |
| 2026-04-22 19:46 | 45.31210 | 165.95454 | 35871 ft | 420 kts | 258° |
| 2026-04-22 19:46 | 45.29697 | 165.87508 | 35884 ft | 417 kts | 258° |
| 2026-04-22 19:47 | 45.28183 | 165.79578 | 35884 ft | 419 kts | 258° |
| 2026-04-22 19:47 | 45.26654 | 165.71616 | 35887 ft | 419 kts | 258° |
| 2026-04-22 19:48 | 45.25123 | 165.63666 | 35884 ft | 418 kts | 258° |
| 2026-04-22 19:48 | 45.23597 | 165.55778 | 35888 ft | 417 kts | 258° |
| 2026-04-22 19:49 | 45.22055 | 165.47839 | 35898 ft | 417 kts | 258° |
| 2026-04-22 19:49 | 45.20515 | 165.39938 | 35890 ft | 417 kts | 258° |
| 2026-04-22 19:50 | 45.18967 | 165.32033 | 35906 ft | 417 kts | 257° |
| 2026-04-22 19:50 | 45.17424 | 165.24188 | 35916 ft | 416 kts | 257° |
| 2026-04-22 19:51 | 45.15868 | 165.16301 | 35915 ft | 416 kts | 257° |
| 2026-04-22 19:51 | 45.15090 | 165.12380 | 35661 ft | 415 kts | 257° |
| 2026-04-22 19:51 | 45.14315 | 165.08472 | 36117 ft | 414 kts | 257° |
| 2026-04-22 19:52 | 45.13523 | 165.04475 | 35847 ft | 420 kts | 257° |
| 2026-04-22 19:52 | 45.12738 | 165.00539 | 35944 ft | 415 kts | 257° |
| 2026-04-22 19:52 | 45.11173 | 164.92715 | 35905 ft | 414 kts | 257° |
| 2026-04-22 19:53 | 45.09609 | 164.84915 | 35895 ft | 415 kts | 257° |
| 2026-04-22 19:53 | 45.08028 | 164.77060 | 35913 ft | 415 kts | 257° |
| 2026-04-22 19:54 | 45.06451 | 164.69263 | 35910 ft | 414 kts | 257° |
| 2026-04-22 19:54 | 45.04857 | 164.61414 | 35903 ft | 416 kts | 257° |
| 2026-04-22 19:55 | 45.03267 | 164.53600 | 35904 ft | 416 kts | 257° |
| 2026-04-22 19:55 | 45.01667 | 164.45787 | 35902 ft | 414 kts | 257° |
| 2026-04-22 19:56 | 45.00071 | 164.38008 | 35906 ft | 415 kts | 257° |
| 2026-04-22 19:56 | 44.98465 | 164.30223 | 35932 ft | 416 kts | 257° |
| 2026-04-22 19:57 | 44.96842 | 164.22378 | 35935 ft | 414 kts | 256° |
| 2026-04-22 19:57 | 44.95233 | 164.14639 | 35935 ft | 411 kts | 256° |
| 2026-04-22 19:58 | 44.93618 | 164.06894 | 35941 ft | 412 kts | 256° |
| 2026-04-22 19:58 | 44.91999 | 163.99162 | 35931 ft | 412 kts | 256° |
| 2026-04-22 20:00 | 44.86299 | 163.72168 | 35923 ft | 410 kts | 257° |
| 2026-04-22 20:01 | 44.84669 | 163.64500 | 35924 ft | 411 kts | 256° |
| 2026-04-22 20:01 | 44.83025 | 163.56804 | 35920 ft | 412 kts | 256° |
| 2026-04-22 20:02 | 44.81369 | 163.49091 | 35915 ft | 410 kts | 257° |
| 2026-04-22 20:02 | 44.79722 | 163.41435 | 35921 ft | 411 kts | 256° |
| 2026-04-22 20:03 | 44.78067 | 163.33777 | 35912 ft | 411 kts | 255° |
| 2026-04-22 20:03 | 44.76405 | 163.26111 | 35922 ft | 411 kts | 256° |
| 2026-04-22 20:04 | 44.74737 | 163.18449 | 35918 ft | 411 kts | 255° |
| 2026-04-22 20:04 | 44.73068 | 163.10811 | 35922 ft | 410 kts | 256° |
| 2026-04-22 20:05 | 44.71393 | 163.03172 | 35918 ft | 410 kts | 256° |
| 2026-04-22 20:05 | 44.69723 | 162.95584 | 35919 ft | 409 kts | 256° |
| 2026-04-22 20:06 | 44.68040 | 162.87967 | 35915 ft | 410 kts | 255° |
| 2026-04-22 20:06 | 44.66351 | 162.80337 | 35910 ft | 408 kts | 255° |
| 2026-04-22 20:07 | 44.64663 | 162.72748 | 35899 ft | 409 kts | 256° |
| 2026-04-22 20:07 | 44.62974 | 162.65184 | 35908 ft | 409 kts | 255° |
| 2026-04-22 20:08 | 44.61280 | 162.57622 | 35908 ft | 407 kts | 256° |
| 2026-04-22 20:08 | 44.59573 | 162.50026 | 35895 ft | 408 kts | 255° |
| 2026-04-22 20:09 | 44.57866 | 162.42454 | 35903 ft | 409 kts | 256° |
| 2026-04-22 20:09 | 44.56162 | 162.34929 | 35903 ft | 407 kts | 255° |
| 2026-04-22 20:10 | 44.54450 | 162.27393 | 35918 ft | 408 kts | 254° |
| 2026-04-22 20:10 | 44.52718 | 162.19792 | 35906 ft | 408 kts | 255° |
| 2026-04-22 20:11 | 44.51000 | 162.12282 | 35914 ft | 407 kts | 255° |
| 2026-04-22 20:11 | 44.49272 | 162.04759 | 35913 ft | 407 kts | 255° |
| 2026-04-22 20:12 | 44.47535 | 161.97215 | 35917 ft | 407 kts | 255° |
| 2026-04-22 20:12 | 44.45796 | 161.89691 | 35909 ft | 407 kts | 255° |
| 2026-04-22 20:13 | 44.44054 | 161.82176 | 35908 ft | 407 kts | 254° |
| 2026-04-22 20:13 | 44.42305 | 161.74660 | 35906 ft | 407 kts | 254° |
| 2026-04-22 20:14 | 44.40545 | 161.67122 | 35908 ft | 407 kts | 255° |
| 2026-04-22 20:14 | 44.38790 | 161.59627 | 35905 ft | 408 kts | 255° |
| 2026-04-22 20:15 | 44.37033 | 161.52161 | 35900 ft | 407 kts | 254° |
| 2026-04-22 20:15 | 44.35263 | 161.44659 | 35899 ft | 406 kts | 255° |
| 2026-04-22 20:16 | 44.33498 | 161.37190 | 35893 ft | 406 kts | 254° |
| 2026-04-22 20:16 | 44.31724 | 161.29723 | 35904 ft | 407 kts | 254° |
| 2026-04-22 20:17 | 44.29956 | 161.22301 | 35897 ft | 406 kts | 253° |
| 2026-04-22 20:17 | 44.28176 | 161.14851 | 35889 ft | 406 kts | 253° |
| 2026-04-22 20:18 | 44.26381 | 161.07369 | 35887 ft | 407 kts | 254° |
| 2026-04-22 20:18 | 44.24591 | 160.99928 | 35887 ft | 405 kts | 253° |
| 2026-04-22 20:19 | 44.22802 | 160.92513 | 35884 ft | 406 kts | 253° |
| 2026-04-22 20:19 | 44.20996 | 160.85060 | 35874 ft | 405 kts | 254° |
| 2026-04-22 20:20 | 44.19195 | 160.77647 | 35873 ft | 406 kts | 254° |
| 2026-04-22 20:20 | 44.17391 | 160.70245 | 35868 ft | 406 kts | 253° |
| 2026-04-22 20:21 | 44.15576 | 160.62822 | 35871 ft | 405 kts | 253° |
| 2026-04-22 20:21 | 44.13759 | 160.55418 | 35863 ft | 406 kts | 254° |
| 2026-04-22 20:22 | 44.11942 | 160.48030 | 35862 ft | 406 kts | 253° |
| 2026-04-22 20:22 | 44.10110 | 160.40610 | 35859 ft | 405 kts | 253° |
| 2026-04-22 20:23 | 44.08281 | 160.33223 | 35866 ft | 405 kts | 252° |
| 2026-04-22 20:23 | 44.06452 | 160.25858 | 35869 ft | 406 kts | 253° |
| 2026-04-22 20:24 | 44.04604 | 160.18436 | 35865 ft | 406 kts | 253° |
| 2026-04-22 20:24 | 44.02770 | 160.11085 | 35863 ft | 406 kts | 253° |
| 2026-04-22 20:25 | 44.00918 | 160.03680 | 35863 ft | 406 kts | 253° |
| 2026-04-22 20:25 | 43.98859 | 159.96390 | 35871 ft | 408 kts | 248° |
| 2026-04-22 20:26 | 43.96462 | 159.89296 | 35856 ft | 407 kts | 248° |
| 2026-04-22 20:26 | 43.94072 | 159.82228 | 35864 ft | 407 kts | 248° |
| 2026-04-22 20:27 | 43.91671 | 159.75122 | 35856 ft | 406 kts | 248° |
| 2026-04-22 20:27 | 43.89276 | 159.68045 | 35854 ft | 406 kts | 248° |
| 2026-04-22 20:28 | 43.86889 | 159.61005 | 35856 ft | 405 kts | 248° |
| 2026-04-22 20:28 | 43.84496 | 159.53958 | 35861 ft | 405 kts | 248° |
| 2026-04-22 20:29 | 43.82109 | 159.46942 | 35852 ft | 404 kts | 248° |
| 2026-04-22 20:29 | 43.79715 | 159.39920 | 35854 ft | 404 kts | 248° |
| 2026-04-22 20:30 | 43.77313 | 159.32898 | 35857 ft | 403 kts | 248° |
| 2026-04-22 20:30 | 43.74910 | 159.25884 | 35866 ft | 404 kts | 248° |
| 2026-04-22 20:31 | 43.72512 | 159.18901 | 35859 ft | 402 kts | 248° |
| 2026-04-22 20:31 | 43.70106 | 159.11912 | 35856 ft | 404 kts | 248° |
| 2026-04-22 20:32 | 43.67709 | 159.04965 | 35850 ft | 404 kts | 248° |
| 2026-04-22 20:32 | 43.65286 | 158.97965 | 35847 ft | 403 kts | 248° |
| 2026-04-22 20:33 | 43.62886 | 158.91042 | 35847 ft | 403 kts | 247° |
| 2026-04-22 20:33 | 43.60460 | 158.84064 | 35844 ft | 403 kts | 247° |
| 2026-04-22 20:34 | 43.58043 | 158.77132 | 35858 ft | 401 kts | 247° |
| 2026-04-22 20:34 | 43.55625 | 158.70218 | 35844 ft | 402 kts | 248° |
| 2026-04-22 20:35 | 43.53209 | 158.63318 | 35849 ft | 402 kts | 247° |
| 2026-04-22 20:35 | 43.50788 | 158.56422 | 35847 ft | 403 kts | 247° |
| 2026-04-22 20:36 | 43.48350 | 158.49504 | 35849 ft | 402 kts | 248° |
| 2026-04-22 20:36 | 43.45912 | 158.42596 | 35858 ft | 402 kts | 248° |
| 2026-04-22 20:37 | 43.43460 | 158.35667 | 35849 ft | 402 kts | 248° |
| 2026-04-22 20:37 | 43.41020 | 158.28787 | 35864 ft | 403 kts | 246° |
| 2026-04-22 20:38 | 43.38568 | 158.21895 | 35858 ft | 401 kts | 247° |
| 2026-04-22 20:38 | 43.36125 | 158.15047 | 35853 ft | 401 kts | 247° |
| 2026-04-22 20:39 | 43.33660 | 158.08144 | 35869 ft | 403 kts | 246° |
| 2026-04-22 20:39 | 43.31195 | 158.01271 | 35863 ft | 402 kts | 247° |
| 2026-04-22 20:40 | 43.28742 | 157.94440 | 35866 ft | 402 kts | 247° |
| 2026-04-22 20:40 | 43.26284 | 157.87613 | 35861 ft | 401 kts | 247° |
| 2026-04-22 20:41 | 43.23801 | 157.80736 | 35862 ft | 402 kts | 246° |
| 2026-04-22 20:41 | 43.21334 | 157.73917 | 35858 ft | 402 kts | 247° |
| 2026-04-22 20:42 | 43.18849 | 157.67065 | 35863 ft | 402 kts | 247° |
| 2026-04-22 20:42 | 43.16348 | 157.60190 | 35851 ft | 402 kts | 246° |
| 2026-04-22 20:43 | 43.13870 | 157.53391 | 35858 ft | 402 kts | 247° |
| 2026-04-22 20:43 | 43.11364 | 157.46535 | 35843 ft | 402 kts | 247° |
| 2026-04-22 20:44 | 43.08869 | 157.39726 | 35845 ft | 402 kts | 247° |
| 2026-04-22 20:44 | 43.06369 | 157.32918 | 35859 ft | 402 kts | 246° |
| 2026-04-22 20:45 | 43.03872 | 157.26134 | 35851 ft | 403 kts | 246° |
| 2026-04-22 20:45 | 43.01347 | 157.19292 | 35848 ft | 403 kts | 246° |
| 2026-04-22 20:46 | 42.97560 | 157.09058 | 35847 ft | 403 kts | 246° |
| 2026-04-22 20:46 | 42.95032 | 157.02251 | 35848 ft | 404 kts | 246° |
| 2026-04-22 20:47 | 42.92508 | 156.95465 | 35841 ft | 404 kts | 246° |
| 2026-04-22 20:47 | 42.89964 | 156.88644 | 35852 ft | 404 kts | 246° |
| 2026-04-22 20:48 | 42.87427 | 156.81865 | 35846 ft | 403 kts | 246° |
| 2026-04-22 20:48 | 42.84867 | 156.75035 | 35851 ft | 403 kts | 246° |
| 2026-04-22 20:49 | 42.82335 | 156.68291 | 35858 ft | 403 kts | 246° |
| 2026-04-22 20:49 | 42.79770 | 156.61485 | 35855 ft | 403 kts | 246° |
| 2026-04-22 20:50 | 42.77225 | 156.54744 | 35852 ft | 402 kts | 246° |
| 2026-04-22 20:50 | 42.74657 | 156.47958 | 35856 ft | 402 kts | 246° |
| 2026-04-22 20:51 | 42.72115 | 156.41258 | 35849 ft | 403 kts | 246° |
| 2026-04-22 20:51 | 42.69533 | 156.34470 | 35847 ft | 403 kts | 246° |
| 2026-04-22 20:52 | 42.66964 | 156.27728 | 35865 ft | 404 kts | 246° |
| 2026-04-22 20:52 | 42.64394 | 156.21002 | 35871 ft | 403 kts | 246° |
| 2026-04-22 20:53 | 42.61811 | 156.14256 | 35875 ft | 402 kts | 246° |
| 2026-04-22 20:53 | 42.59253 | 156.07593 | 35876 ft | 402 kts | 246° |
| 2026-04-22 20:54 | 42.56673 | 156.00886 | 35885 ft | 402 kts | 246° |
| 2026-04-22 20:54 | 42.54091 | 155.94192 | 35876 ft | 401 kts | 246° |
| 2026-04-22 20:55 | 42.51503 | 155.87495 | 35879 ft | 403 kts | 246° |
| 2026-04-22 20:55 | 42.48905 | 155.80792 | 35879 ft | 401 kts | 246° |
| 2026-04-22 20:56 | 42.46311 | 155.74115 | 35875 ft | 401 kts | 246° |
| 2026-04-22 20:56 | 42.43726 | 155.67473 | 35876 ft | 401 kts | 246° |
| 2026-04-22 20:57 | 42.41124 | 155.60803 | 35875 ft | 401 kts | 247° |
| 2026-04-22 20:57 | 42.38524 | 155.54156 | 35871 ft | 401 kts | 246° |
| 2026-04-22 20:58 | 42.35930 | 155.47537 | 35866 ft | 401 kts | 246° |
| 2026-04-22 20:58 | 42.33315 | 155.40883 | 35862 ft | 400 kts | 247° |
| 2026-04-22 20:59 | 42.30744 | 155.34354 | 35857 ft | 400 kts | 246° |
| 2026-04-22 20:59 | 42.28124 | 155.27714 | 35877 ft | 400 kts | 246° |
| 2026-04-22 21:00 | 42.25525 | 155.21143 | 35880 ft | 399 kts | 246° |
| 2026-04-22 21:00 | 42.22904 | 155.14534 | 35886 ft | 399 kts | 246° |
| 2026-04-22 21:01 | 42.20283 | 155.07936 | 35883 ft | 399 kts | 246° |
| 2026-04-22 21:01 | 42.17674 | 155.01387 | 35877 ft | 399 kts | 246° |
| 2026-04-22 21:02 | 42.15060 | 154.94838 | 35876 ft | 399 kts | 246° |
| 2026-04-22 21:02 | 42.12423 | 154.88248 | 35881 ft | 398 kts | 246° |
| 2026-04-22 21:03 | 42.09806 | 154.81723 | 35890 ft | 397 kts | 247° |
| 2026-04-22 21:03 | 42.07187 | 154.75201 | 35898 ft | 397 kts | 246° |
| 2026-04-22 21:04 | 42.04564 | 154.68692 | 35894 ft | 396 kts | 246° |
| 2026-04-22 21:04 | 42.01939 | 154.62189 | 35894 ft | 396 kts | 247° |
| 2026-04-22 21:05 | 42.00623 | 154.58934 | 35631 ft | 397 kts | 246° |
| 2026-04-22 21:05 | 41.99327 | 154.55737 | 35904 ft | 393 kts | 247° |
| 2026-04-22 21:05 | 41.97998 | 154.52452 | 36137 ft | 398 kts | 246° |
| 2026-04-22 21:05 | 41.96689 | 154.49225 | 35702 ft | 398 kts | 247° |
| 2026-04-22 21:06 | 41.95376 | 154.45999 | 35951 ft | 394 kts | 247° |
| 2026-04-22 21:06 | 41.94044 | 154.42717 | 35863 ft | 399 kts | 246° |
| 2026-04-22 21:06 | 41.91411 | 154.36252 | 35879 ft | 398 kts | 247° |
| 2026-04-22 21:07 | 41.88744 | 154.29718 | 35903 ft | 398 kts | 246° |
| 2026-04-22 21:07 | 41.86106 | 154.23268 | 35909 ft | 397 kts | 246° |
| 2026-04-22 21:08 | 41.83447 | 154.16788 | 35914 ft | 396 kts | 247° |
| 2026-04-22 21:08 | 41.80807 | 154.10362 | 35921 ft | 393 kts | 247° |
| 2026-04-22 21:09 | 41.78173 | 154.03966 | 35918 ft | 394 kts | 247° |
| 2026-04-22 21:09 | 41.75531 | 153.97560 | 35916 ft | 394 kts | 247° |
| 2026-04-22 21:10 | 41.72872 | 153.91133 | 35902 ft | 393 kts | 247° |
| 2026-04-22 21:10 | 41.70241 | 153.84784 | 35907 ft | 391 kts | 248° |
| 2026-04-22 21:11 | 41.67619 | 153.78465 | 35901 ft | 392 kts | 247° |
| 2026-04-22 21:11 | 41.64980 | 153.72128 | 35890 ft | 390 kts | 248° |
| 2026-04-22 21:12 | 41.62342 | 153.65807 | 35885 ft | 389 kts | 247° |
| 2026-04-22 21:12 | 41.59701 | 153.59488 | 35892 ft | 389 kts | 248° |
| 2026-04-22 21:13 | 41.57075 | 153.53220 | 35892 ft | 387 kts | 248° |
| 2026-04-22 21:13 | 41.54458 | 153.46985 | 35901 ft | 385 kts | 248° |
| 2026-04-22 21:14 | 41.51833 | 153.40745 | 35906 ft | 386 kts | 248° |
| 2026-04-22 21:14 | 41.49217 | 153.34541 | 35884 ft | 384 kts | 248° |
| 2026-04-22 21:15 | 41.46609 | 153.28368 | 35899 ft | 385 kts | 248° |
| 2026-04-22 21:15 | 41.43975 | 153.22142 | 35932 ft | 384 kts | 248° |
| 2026-04-22 21:16 | 41.41372 | 153.16013 | 35920 ft | 379 kts | 248° |
| 2026-04-22 21:16 | 41.38782 | 153.09914 | 35929 ft | 380 kts | 248° |
| 2026-04-22 21:17 | 41.36191 | 153.03830 | 35908 ft | 379 kts | 248° |
| 2026-04-22 21:17 | 41.33592 | 152.97737 | 35909 ft | 378 kts | 248° |
| 2026-04-22 21:18 | 41.31017 | 152.91713 | 35914 ft | 376 kts | 248° |
| 2026-04-22 21:18 | 41.28427 | 152.85669 | 35905 ft | 377 kts | 248° |
| 2026-04-22 21:19 | 41.25829 | 152.79620 | 35910 ft | 377 kts | 249° |
| 2026-04-22 21:19 | 41.23239 | 152.73599 | 35918 ft | 374 kts | 248° |
| 2026-04-22 21:20 | 41.20656 | 152.67603 | 35916 ft | 375 kts | 248° |
| 2026-04-22 21:20 | 41.18069 | 152.61615 | 35930 ft | 374 kts | 249° |
| 2026-04-22 21:21 | 41.15497 | 152.55670 | 35927 ft | 372 kts | 249° |
| 2026-04-22 21:21 | 41.12940 | 152.49779 | 35914 ft | 370 kts | 248° |
| 2026-04-22 21:22 | 41.10363 | 152.43845 | 35914 ft | 373 kts | 249° |
| 2026-04-22 21:22 | 41.07796 | 152.37955 | 35900 ft | 368 kts | 249° |
| 2026-04-22 21:23 | 41.05225 | 152.32057 | 35940 ft | 370 kts | 248° |
| 2026-04-22 21:23 | 41.02662 | 152.26192 | 35933 ft | 370 kts | 249° |
| 2026-04-22 21:24 | 41.00098 | 152.20337 | 35921 ft | 366 kts | 248° |
| 2026-04-22 21:24 | 40.97550 | 152.14534 | 35931 ft | 366 kts | 249° |
| 2026-04-22 21:25 | 40.94981 | 152.08681 | 35933 ft | 369 kts | 248° |
| 2026-04-22 21:25 | 40.92417 | 152.02864 | 35939 ft | 366 kts | 249° |
| 2026-04-22 21:26 | 40.89850 | 151.97044 | 35926 ft | 368 kts | 248° |
| 2026-04-22 21:26 | 40.87287 | 151.91242 | 35929 ft | 367 kts | 248° |
| 2026-04-22 21:27 | 40.84739 | 151.85492 | 35939 ft | 364 kts | 248° |
| 2026-04-22 21:27 | 40.82185 | 151.79738 | 35924 ft | 364 kts | 249° |
| 2026-04-22 21:28 | 40.79626 | 151.73975 | 35924 ft | 368 kts | 249° |
| 2026-04-22 21:28 | 40.77046 | 151.68192 | 35923 ft | 365 kts | 249° |
| 2026-04-22 21:29 | 40.74504 | 151.62495 | 35920 ft | 361 kts | 249° |
| 2026-04-22 21:29 | 40.71954 | 151.56787 | 35937 ft | 361 kts | 248° |
| 2026-04-22 21:30 | 40.69395 | 151.51077 | 35931 ft | 363 kts | 248° |
| 2026-04-22 21:30 | 40.66832 | 151.45358 | 35933 ft | 363 kts | 249° |
| 2026-04-22 21:31 | 40.64259 | 151.39641 | 35929 ft | 363 kts | 249° |
| 2026-04-22 21:31 | 40.61692 | 151.33936 | 35940 ft | 364 kts | 248° |
| 2026-04-22 21:32 | 40.59115 | 151.28230 | 35947 ft | 365 kts | 249° |
| 2026-04-22 21:32 | 40.56535 | 151.22520 | 35949 ft | 365 kts | 248° |
| 2026-04-22 21:33 | 40.53949 | 151.16815 | 35957 ft | 361 kts | 248° |
| 2026-04-22 21:33 | 40.51388 | 151.11179 | 35952 ft | 358 kts | 249° |
| 2026-04-22 21:34 | 40.48833 | 151.05550 | 35955 ft | 362 kts | 249° |
| 2026-04-22 21:34 | 40.46240 | 150.99863 | 35959 ft | 362 kts | 248° |
| 2026-04-22 21:35 | 40.43676 | 150.94247 | 35950 ft | 361 kts | 249° |
| 2026-04-22 21:35 | 40.41101 | 150.88608 | 35948 ft | 362 kts | 248° |
| 2026-04-22 21:36 | 40.38502 | 150.82938 | 35947 ft | 361 kts | 248° |
| 2026-04-22 21:36 | 40.35930 | 150.77328 | 35940 ft | 362 kts | 248° |
| 2026-04-22 21:37 | 40.33331 | 150.71670 | 35952 ft | 362 kts | 249° |
| 2026-04-22 21:37 | 40.30740 | 150.66049 | 35940 ft | 360 kts | 248° |
| 2026-04-22 21:38 | 40.28167 | 150.60477 | 35882 ft | 361 kts | 249° |
| 2026-04-22 21:38 | 40.26872 | 150.57655 | 36066 ft | 363 kts | 249° |
| 2026-04-22 21:38 | 40.25575 | 150.54863 | 35920 ft | 356 kts | 248° |
| 2026-04-22 21:39 | 40.22985 | 150.49278 | 36110 ft | 360 kts | 249° |
| 2026-04-22 21:39 | 40.21692 | 150.46483 | 35947 ft | 359 kts | 249° |
| 2026-04-22 21:39 | 40.20393 | 150.43690 | 35936 ft | 360 kts | 248° |
| 2026-04-22 21:40 | 40.17808 | 150.38123 | 35922 ft | 358 kts | 249° |
| 2026-04-22 21:40 | 40.15234 | 150.32577 | 35955 ft | 360 kts | 248° |
| 2026-04-22 21:41 | 40.12648 | 150.27037 | 35949 ft | 360 kts | 248° |
| 2026-04-22 21:41 | 40.10038 | 150.21443 | 35942 ft | 360 kts | 248° |
| 2026-04-22 21:42 | 40.07447 | 150.15904 | 35938 ft | 358 kts | 248° |
| 2026-04-22 21:42 | 40.04857 | 150.10378 | 35948 ft | 358 kts | 249° |
| 2026-04-22 21:43 | 40.02235 | 150.04776 | 35954 ft | 363 kts | 248° |
| 2026-04-22 21:43 | 39.99680 | 149.99194 | 35940 ft | 357 kts | 251° |
| 2026-04-22 21:44 | 39.97649 | 149.93390 | 35943 ft | 350 kts | 252° |
| 2026-04-22 21:44 | 39.95647 | 149.87561 | 35948 ft | 352 kts | 253° |
| 2026-04-22 21:45 | 39.93642 | 149.81749 | 35942 ft | 354 kts | 254° |
| 2026-04-22 21:45 | 39.91637 | 149.75967 | 35940 ft | 353 kts | 253° |
| 2026-04-22 21:46 | 39.89613 | 149.70132 | 35936 ft | 353 kts | 253° |
| 2026-04-22 21:46 | 39.87588 | 149.64313 | 35936 ft | 353 kts | 253° |
| 2026-04-22 21:47 | 39.85557 | 149.58491 | 35941 ft | 352 kts | 253° |
| 2026-04-22 21:47 | 39.83526 | 149.52676 | 35936 ft | 355 kts | 253° |
| 2026-04-22 21:48 | 39.81482 | 149.46851 | 35942 ft | 354 kts | 254° |
| 2026-04-22 21:48 | 39.79458 | 149.41077 | 35941 ft | 355 kts | 253° |
| 2026-04-22 21:49 | 39.77398 | 149.35220 | 35930 ft | 356 kts | 253° |
| 2026-04-22 21:49 | 39.75341 | 149.29382 | 35951 ft | 358 kts | 253° |
| 2026-04-22 21:50 | 39.73275 | 149.23546 | 35950 ft | 357 kts | 253° |
| 2026-04-22 21:50 | 39.71198 | 149.17670 | 35954 ft | 357 kts | 253° |
| 2026-04-22 21:51 | 39.69134 | 149.11861 | 35954 ft | 357 kts | 253° |
| 2026-04-22 21:52 | 39.66008 | 149.03072 | 35956 ft | 357 kts | 253° |
| 2026-04-22 21:52 | 39.63928 | 148.97232 | 35954 ft | 359 kts | 253° |
| 2026-04-22 21:53 | 39.61840 | 148.91393 | 35946 ft | 358 kts | 253° |
| 2026-04-22 21:53 | 39.59730 | 148.85498 | 36286 ft | 359 kts | 253° |
| 2026-04-22 21:53 | 39.58688 | 148.82596 | 36644 ft | 358 kts | 253° |
| 2026-04-22 21:54 | 39.57644 | 148.79691 | 36986 ft | 357 kts | 253° |
| 2026-04-22 21:54 | 39.56594 | 148.76770 | 37329 ft | 355 kts | 253° |
| 2026-04-22 21:54 | 39.55553 | 148.73872 | 37527 ft | 357 kts | 253° |
| 2026-04-22 21:54 | 39.54515 | 148.70989 | 37804 ft | 356 kts | 253° |
| 2026-04-22 21:55 | 39.53469 | 148.68089 | 37968 ft | 356 kts | 253° |
| 2026-04-22 21:55 | 39.51374 | 148.62283 | 37954 ft | 354 kts | 253° |
| 2026-04-22 21:56 | 39.49314 | 148.56595 | 37943 ft | 351 kts | 253° |
| 2026-04-22 21:56 | 39.47240 | 148.50864 | 37945 ft | 353 kts | 252° |
| 2026-04-22 21:57 | 39.45155 | 148.45116 | 37940 ft | 355 kts | 253° |
| 2026-04-22 21:57 | 39.43053 | 148.39342 | 37934 ft | 352 kts | 253° |
| 2026-04-22 21:58 | 39.40982 | 148.33655 | 37959 ft | 354 kts | 253° |
| 2026-04-22 21:58 | 39.38865 | 148.27850 | 37970 ft | 356 kts | 252° |
| 2026-04-22 21:59 | 39.36770 | 148.22131 | 37969 ft | 353 kts | 252° |
| 2026-04-22 21:59 | 39.34668 | 148.16396 | 37968 ft | 355 kts | 252° |
| 2026-04-22 22:00 | 39.32562 | 148.10660 | 37964 ft | 356 kts | 252° |
| 2026-04-22 22:00 | 39.30437 | 148.04884 | 37961 ft | 356 kts | 252° |
| 2026-04-22 22:01 | 39.28325 | 147.99158 | 37958 ft | 356 kts | 252° |
| 2026-04-22 22:01 | 39.26186 | 147.93370 | 37959 ft | 356 kts | 253° |
| 2026-04-22 22:02 | 39.24068 | 147.87648 | 37953 ft | 355 kts | 252° |
| 2026-04-22 22:02 | 39.21920 | 147.81853 | 37953 ft | 358 kts | 251° |
| 2026-04-22 22:03 | 39.19788 | 147.76115 | 37953 ft | 357 kts | 251° |
| 2026-04-22 22:03 | 39.17650 | 147.70378 | 37953 ft | 356 kts | 252° |
| 2026-04-22 22:04 | 39.15497 | 147.64601 | 37951 ft | 358 kts | 251° |
| 2026-04-22 22:04 | 39.13351 | 147.58859 | 37955 ft | 358 kts | 252° |
| 2026-04-22 22:05 | 39.11196 | 147.53105 | 37953 ft | 358 kts | 252° |
| 2026-04-22 22:05 | 39.09050 | 147.47386 | 37937 ft | 355 kts | 252° |
| 2026-04-22 22:06 | 39.06896 | 147.41655 | 37938 ft | 357 kts | 251° |
| 2026-04-22 22:06 | 39.04734 | 147.35915 | 37932 ft | 357 kts | 251° |
| 2026-04-22 22:07 | 39.02558 | 147.30142 | 37961 ft | 362 kts | 250° |
| 2026-04-22 22:07 | 39.00380 | 147.24387 | 37954 ft | 360 kts | 251° |
| 2026-04-22 22:08 | 38.98186 | 147.18596 | 37953 ft | 360 kts | 252° |
| 2026-04-22 22:08 | 38.96001 | 147.12839 | 37954 ft | 359 kts | 252° |
| 2026-04-22 22:09 | 38.93805 | 147.07062 | 37945 ft | 359 kts | 250° |
| 2026-04-22 22:09 | 38.91627 | 147.01347 | 37946 ft | 359 kts | 251° |
| 2026-04-22 22:10 | 38.89422 | 146.95569 | 37948 ft | 361 kts | 251° |
| 2026-04-22 22:10 | 38.87229 | 146.89833 | 37951 ft | 360 kts | 251° |
| 2026-04-22 22:11 | 38.85016 | 146.84053 | 37951 ft | 361 kts | 250° |
| 2026-04-22 22:11 | 38.82814 | 146.78317 | 37945 ft | 361 kts | 250° |
| 2026-04-22 22:12 | 38.80585 | 146.72520 | 37951 ft | 362 kts | 250° |
| 2026-04-22 22:12 | 38.78360 | 146.66750 | 37945 ft | 363 kts | 251° |
| 2026-04-22 22:13 | 38.76129 | 146.60973 | 37945 ft | 361 kts | 250° |
| 2026-04-22 22:13 | 38.73904 | 146.55217 | 37948 ft | 363 kts | 251° |
| 2026-04-22 22:14 | 38.71657 | 146.49419 | 37936 ft | 363 kts | 251° |
| 2026-04-22 22:14 | 38.69431 | 146.43684 | 37939 ft | 363 kts | 251° |
| 2026-04-22 22:15 | 38.67187 | 146.37915 | 37942 ft | 363 kts | 250° |
| 2026-04-22 22:15 | 38.64929 | 146.32120 | 37979 ft | 365 kts | 250° |
| 2026-04-22 22:16 | 38.62664 | 146.26320 | 37966 ft | 364 kts | 250° |
| 2026-04-22 22:16 | 38.60417 | 146.20579 | 37964 ft | 363 kts | 250° |
| 2026-04-22 22:17 | 38.58160 | 146.14818 | 37960 ft | 363 kts | 250° |
| 2026-04-22 22:17 | 38.55880 | 146.09009 | 37965 ft | 366 kts | 249° |
| 2026-04-22 22:18 | 38.53599 | 146.03212 | 37955 ft | 367 kts | 250° |
| 2026-04-22 22:18 | 38.51327 | 145.97447 | 37950 ft | 365 kts | 249° |
| 2026-04-22 22:19 | 38.49052 | 145.91682 | 37954 ft | 365 kts | 249° |
| 2026-04-22 22:19 | 38.46763 | 145.85895 | 37947 ft | 366 kts | 249° |
| 2026-04-22 22:20 | 38.44474 | 145.80116 | 37950 ft | 367 kts | 249° |
| 2026-04-22 22:20 | 38.42175 | 145.74326 | 37946 ft | 366 kts | 250° |
| 2026-04-22 22:21 | 38.39896 | 145.68596 | 37940 ft | 365 kts | 251° |
| 2026-04-22 22:21 | 38.37597 | 145.62817 | 37948 ft | 365 kts | 250° |
| 2026-04-22 22:22 | 38.35318 | 145.57100 | 37938 ft | 364 kts | 249° |
| 2026-04-22 22:22 | 38.33084 | 145.51282 | 37935 ft | 363 kts | 253° |
| 2026-04-22 22:23 | 38.31514 | 145.45252 | 37934 ft | 361 kts | 257° |
| 2026-04-22 22:23 | 38.30009 | 145.39201 | 37935 ft | 360 kts | 256° |
| 2026-04-22 22:24 | 38.28482 | 145.33125 | 37965 ft | 360 kts | 257° |
| 2026-04-22 22:24 | 38.26949 | 145.27042 | 37953 ft | 363 kts | 257° |
| 2026-04-22 22:25 | 38.25414 | 145.20966 | 37960 ft | 362 kts | 255° |
| 2026-04-22 22:25 | 38.23872 | 145.14891 | 37955 ft | 361 kts | 256° |
| 2026-04-22 22:26 | 38.22326 | 145.08813 | 37950 ft | 360 kts | 256° |
| 2026-04-22 22:26 | 38.20785 | 145.02771 | 37944 ft | 359 kts | 256° |
| 2026-04-22 22:27 | 38.19250 | 144.96762 | 37949 ft | 362 kts | 255° |
| 2026-04-22 22:27 | 38.17683 | 144.90651 | 37945 ft | 363 kts | 256° |
| 2026-04-22 22:28 | 38.16127 | 144.84599 | 37946 ft | 360 kts | 256° |
| 2026-04-22 22:28 | 38.14576 | 144.78574 | 37942 ft | 361 kts | 255° |
| 2026-04-22 22:29 | 38.13012 | 144.72522 | 37947 ft | 361 kts | 256° |
| 2026-04-22 22:29 | 38.11450 | 144.66487 | 37949 ft | 362 kts | 255° |
| 2026-04-22 22:30 | 38.09882 | 144.60449 | 37953 ft | 362 kts | 256° |
| 2026-04-22 22:30 | 38.08310 | 144.54404 | 37949 ft | 361 kts | 256° |
| 2026-04-22 22:31 | 38.06731 | 144.48346 | 37944 ft | 362 kts | 255° |
| 2026-04-22 22:31 | 38.05151 | 144.42305 | 37936 ft | 361 kts | 255° |
| 2026-04-22 22:32 | 38.03572 | 144.36276 | 37940 ft | 362 kts | 255° |
| 2026-04-22 22:32 | 38.01991 | 144.30255 | 37965 ft | 362 kts | 255° |
| 2026-04-22 22:33 | 38.00399 | 144.24210 | 37962 ft | 361 kts | 255° |
| 2026-04-22 22:33 | 37.98812 | 144.18204 | 37960 ft | 361 kts | 255° |
| 2026-04-22 22:34 | 37.97218 | 144.12172 | 37951 ft | 361 kts | 254° |
| 2026-04-22 22:34 | 37.95615 | 144.06130 | 37953 ft | 362 kts | 255° |
| 2026-04-22 22:35 | 37.94021 | 144.00130 | 37948 ft | 360 kts | 255° |
| 2026-04-22 22:35 | 37.92417 | 143.94107 | 37944 ft | 360 kts | 255° |
| 2026-04-22 22:36 | 37.90821 | 143.88129 | 37945 ft | 360 kts | 255° |
| 2026-04-22 22:36 | 37.89211 | 143.82114 | 37947 ft | 361 kts | 255° |
| 2026-04-22 22:37 | 37.87598 | 143.76096 | 37938 ft | 362 kts | 255° |
| 2026-04-22 22:37 | 37.85986 | 143.70102 | 37932 ft | 361 kts | 255° |
| 2026-04-22 22:38 | 37.84378 | 143.64123 | 37943 ft | 362 kts | 255° |
| 2026-04-22 22:38 | 37.82758 | 143.58115 | 37937 ft | 362 kts | 255° |
| 2026-04-22 22:39 | 37.81087 | 143.52100 | 37932 ft | 364 kts | 253° |
| 2026-04-22 22:39 | 37.79222 | 143.46202 | 37930 ft | 364 kts | 253° |
| 2026-04-22 22:40 | 37.77358 | 143.40302 | 37931 ft | 363 kts | 253° |
| 2026-04-22 22:40 | 37.75485 | 143.34360 | 37936 ft | 364 kts | 251° |
| 2026-04-22 22:41 | 37.73623 | 143.28465 | 37959 ft | 364 kts | 251° |
| 2026-04-22 22:41 | 37.71752 | 143.22540 | 37952 ft | 362 kts | 251° |
| 2026-04-22 22:42 | 37.69873 | 143.16589 | 37954 ft | 365 kts | 252° |
| 2026-04-22 22:42 | 37.67994 | 143.10661 | 37951 ft | 365 kts | 253° |
| 2026-04-22 22:43 | 37.66113 | 143.04767 | 37940 ft | 362 kts | 252° |
| 2026-04-22 22:43 | 37.64223 | 142.98840 | 37943 ft | 367 kts | 252° |
| 2026-04-22 22:44 | 37.62320 | 142.92894 | 37948 ft | 364 kts | 252° |
| 2026-04-22 22:44 | 37.60442 | 142.87021 | 37947 ft | 364 kts | 251° |
| 2026-04-22 22:45 | 37.58546 | 142.81097 | 37945 ft | 366 kts | 251° |
| 2026-04-22 22:45 | 37.56644 | 142.75157 | 37935 ft | 366 kts | 251° |
| 2026-04-22 22:46 | 37.54737 | 142.69253 | 37929 ft | 365 kts | 252° |
| 2026-04-22 22:46 | 37.52778 | 142.63341 | 37931 ft | 364 kts | 252° |
| 2026-04-22 22:47 | 37.50832 | 142.57472 | 37937 ft | 366 kts | 252° |
| 2026-04-22 22:47 | 37.48869 | 142.51556 | 37928 ft | 366 kts | 251° |
| 2026-04-22 22:48 | 37.46909 | 142.45664 | 37921 ft | 364 kts | 251° |
| 2026-04-22 22:48 | 37.44961 | 142.39815 | 37917 ft | 365 kts | 252° |
| 2026-04-22 22:49 | 37.42989 | 142.33900 | 37930 ft | 366 kts | 251° |
| 2026-04-22 22:49 | 37.41019 | 142.28008 | 37936 ft | 367 kts | 251° |
| 2026-04-22 22:50 | 37.39047 | 142.22115 | 37945 ft | 367 kts | 250° |
| 2026-04-22 22:50 | 37.37069 | 142.16217 | 37939 ft | 365 kts | 250° |
| 2026-04-22 22:51 | 37.35091 | 142.10333 | 37937 ft | 366 kts | 251° |
| 2026-04-22 22:51 | 37.33118 | 142.04469 | 37931 ft | 367 kts | 251° |
| 2026-04-22 22:52 | 37.31120 | 141.98549 | 37921 ft | 367 kts | 251° |
| 2026-04-22 22:52 | 37.29138 | 141.92682 | 37912 ft | 367 kts | 250° |
| 2026-04-22 22:53 | 37.27140 | 141.86778 | 37920 ft | 368 kts | 250° |
| 2026-04-22 22:53 | 37.25143 | 141.80893 | 37919 ft | 366 kts | 251° |
| 2026-04-22 22:54 | 37.23159 | 141.75049 | 37916 ft | 367 kts | 250° |
| 2026-04-22 22:54 | 37.21143 | 141.69127 | 37914 ft | 369 kts | 251° |
| 2026-04-22 22:55 | 37.19133 | 141.63234 | 37912 ft | 369 kts | 251° |
| 2026-04-22 22:55 | 37.16098 | 141.54353 | 37915 ft | 369 kts | 251° |
| 2026-04-22 22:56 | 37.14088 | 141.48486 | 37914 ft | 369 kts | 251° |
| 2026-04-22 22:56 | 37.12062 | 141.42578 | 37912 ft | 369 kts | 250° |
| 2026-04-22 22:57 | 37.10035 | 141.36690 | 37914 ft | 368 kts | 250° |
| 2026-04-22 22:57 | 37.08010 | 141.30811 | 37936 ft | 370 kts | 249° |
| 2026-04-22 22:58 | 37.05973 | 141.24910 | 37932 ft | 369 kts | 250° |
| 2026-04-22 22:58 | 37.03932 | 141.19003 | 37939 ft | 371 kts | 250° |
| 2026-04-22 22:59 | 37.01895 | 141.13117 | 37953 ft | 372 kts | 249° |
| 2026-04-22 22:59 | 36.99846 | 141.07208 | 37950 ft | 372 kts | 250° |
| 2026-04-22 23:00 | 36.97787 | 141.01273 | 37943 ft | 371 kts | 250° |
| 2026-04-22 23:00 | 36.95742 | 140.95375 | 37935 ft | 371 kts | 249° |
| 2026-04-22 23:01 | 36.93671 | 140.89465 | 37914 ft | 372 kts | 249° |
| 2026-04-22 23:01 | 36.91600 | 140.83572 | 37915 ft | 373 kts | 249° |
| 2026-04-22 23:02 | 36.89521 | 140.77670 | 37912 ft | 372 kts | 250° |
| 2026-04-22 23:02 | 36.87435 | 140.71745 | 37912 ft | 372 kts | 250° |
| 2026-04-22 23:03 | 36.85360 | 140.65865 | 37923 ft | 372 kts | 250° |
| 2026-04-22 23:03 | 36.83278 | 140.59972 | 37927 ft | 371 kts | 249° |
| 2026-04-22 23:04 | 36.81196 | 140.54085 | 37927 ft | 372 kts | 249° |
| 2026-04-22 23:04 | 36.79119 | 140.48216 | 37930 ft | 371 kts | 250° |
| 2026-04-22 23:05 | 36.77024 | 140.42303 | 37920 ft | 372 kts | 249° |
| 2026-04-22 23:05 | 36.74952 | 140.36459 | 37920 ft | 372 kts | 248° |
| 2026-04-22 23:06 | 36.72340 | 140.30856 | 37956 ft | 379 kts | 241° |
| 2026-04-22 23:06 | 36.69430 | 140.25424 | 37945 ft | 376 kts | 241° |
| 2026-04-22 23:07 | 36.66563 | 140.20009 | 37939 ft | 375 kts | 242° |
| 2026-04-22 23:07 | 36.63703 | 140.14595 | 37941 ft | 375 kts | 242° |
| 2026-04-22 23:08 | 36.60860 | 140.09206 | 37933 ft | 374 kts | 242° |
| 2026-04-22 23:08 | 36.58007 | 140.03789 | 37929 ft | 376 kts | 242° |
| 2026-04-22 23:09 | 36.55127 | 139.98357 | 37923 ft | 376 kts | 243° |
| 2026-04-22 23:09 | 36.52251 | 139.92941 | 37919 ft | 377 kts | 241° |
| 2026-04-22 23:10 | 36.49378 | 139.87523 | 37927 ft | 375 kts | 242° |
| 2026-04-22 23:10 | 36.46392 | 139.82231 | 37927 ft | 377 kts | 239° |
| 2026-04-22 23:11 | 36.43277 | 139.76981 | 37932 ft | 379 kts | 239° |
| 2026-04-22 23:11 | 36.40176 | 139.71710 | 37925 ft | 377 kts | 239° |
| 2026-04-22 23:12 | 36.37121 | 139.66489 | 37917 ft | 376 kts | 239° |
| 2026-04-22 23:12 | 36.34041 | 139.61226 | 37921 ft | 377 kts | 239° |
| 2026-04-22 23:13 | 36.30954 | 139.55953 | 37925 ft | 379 kts | 239° |
| 2026-04-22 23:13 | 36.27868 | 139.50693 | 37919 ft | 377 kts | 239° |
| 2026-04-22 23:14 | 36.24792 | 139.45444 | 37918 ft | 377 kts | 239° |
| 2026-04-22 23:14 | 36.21707 | 139.40184 | 37910 ft | 380 kts | 239° |
| 2026-04-22 23:15 | 36.18600 | 139.34888 | 37908 ft | 379 kts | 238° |
| 2026-04-22 23:15 | 36.15732 | 139.29504 | 37930 ft | 375 kts | 245° |
| 2026-04-22 23:16 | 36.13546 | 139.23675 | 37936 ft | 374 kts | 247° |
| 2026-04-22 23:16 | 36.11411 | 139.17781 | 37948 ft | 375 kts | 246° |
| 2026-04-22 23:17 | 36.09240 | 139.11949 | 37949 ft | 373 kts | 248° |
| 2026-04-22 23:17 | 36.07079 | 139.06140 | 37935 ft | 375 kts | 246° |
| 2026-04-22 23:18 | 36.04899 | 139.00297 | 37930 ft | 376 kts | 246° |
| 2026-04-22 23:18 | 36.02709 | 138.94437 | 37932 ft | 376 kts | 246° |
| 2026-04-22 23:19 | 36.00521 | 138.88580 | 37949 ft | 375 kts | 246° |
| 2026-04-22 23:19 | 35.98331 | 138.82765 | 37956 ft | 376 kts | 245° |
| 2026-04-22 23:20 | 35.96120 | 138.76914 | 37951 ft | 377 kts | 247° |
| 2026-04-22 23:20 | 35.93905 | 138.71051 | 37957 ft | 378 kts | 246° |
| 2026-04-22 23:21 | 35.91698 | 138.65212 | 37952 ft | 376 kts | 247° |
| 2026-04-22 23:21 | 35.89485 | 138.59343 | 37956 ft | 376 kts | 246° |
| 2026-04-22 23:22 | 35.87273 | 138.53543 | 37957 ft | 377 kts | 246° |
| 2026-04-22 23:22 | 35.85033 | 138.47696 | 37950 ft | 377 kts | 246° |
| 2026-04-22 23:23 | 35.82807 | 138.41875 | 37946 ft | 377 kts | 247° |
| 2026-04-22 23:23 | 35.80572 | 138.36034 | 37948 ft | 380 kts | 246° |
| 2026-04-22 23:24 | 35.78329 | 138.30160 | 37961 ft | 378 kts | 245° |
| 2026-04-22 23:24 | 35.76076 | 138.24322 | 37951 ft | 379 kts | 245° |
| 2026-04-22 23:25 | 35.73809 | 138.18453 | 37950 ft | 379 kts | 246° |
| 2026-04-22 23:25 | 35.71547 | 138.12596 | 37951 ft | 380 kts | 246° |
| 2026-04-22 23:26 | 35.69291 | 138.06753 | 37949 ft | 382 kts | 245° |
| 2026-04-22 23:26 | 35.67007 | 138.00830 | 37953 ft | 382 kts | 246° |
| 2026-04-22 23:27 | 35.64854 | 137.94905 | 37952 ft | 382 kts | 248° |
| 2026-04-22 23:27 | 35.62724 | 137.88969 | 37943 ft | 381 kts | 246° |
| 2026-04-22 23:28 | 35.60548 | 137.82991 | 37925 ft | 383 kts | 245° |
| 2026-04-22 23:28 | 35.57647 | 137.77515 | 37939 ft | 388 kts | 233° |
| 2026-04-22 23:29 | 35.53896 | 137.72734 | 37944 ft | 389 kts | 230° |
| 2026-04-22 23:29 | 35.50100 | 137.67987 | 37932 ft | 389 kts | 231° |
| 2026-04-22 23:30 | 35.46472 | 137.63042 | 37921 ft | 393 kts | 232° |
| 2026-04-22 23:30 | 35.42873 | 137.58057 | 37929 ft | 393 kts | 233° |
| 2026-04-22 23:31 | 35.39241 | 137.53050 | 37931 ft | 392 kts | 233° |
| 2026-04-22 23:31 | 35.35652 | 137.48108 | 37927 ft | 391 kts | 233° |
| 2026-04-22 23:32 | 35.32030 | 137.43118 | 37926 ft | 393 kts | 233° |
| 2026-04-22 23:32 | 35.28303 | 137.38235 | 37921 ft | 394 kts | 227° |
| 2026-04-22 23:33 | 35.24114 | 137.33870 | 37928 ft | 399 kts | 226° |
| 2026-04-22 23:33 | 35.19870 | 137.29494 | 37927 ft | 398 kts | 226° |
| 2026-04-22 23:34 | 35.15655 | 137.25130 | 37925 ft | 399 kts | 225° |
| 2026-04-22 23:34 | 35.11429 | 137.20760 | 37932 ft | 398 kts | 225° |
| 2026-04-22 23:35 | 35.07184 | 137.16368 | 37903 ft | 399 kts | 225° |
| 2026-04-22 23:35 | 35.02929 | 137.11971 | 37894 ft | 400 kts | 225° |
| 2026-04-22 23:36 | 34.98690 | 137.07591 | 37889 ft | 401 kts | 225° |
| 2026-04-22 23:36 | 34.94449 | 137.03215 | 37896 ft | 400 kts | 226° |
| 2026-04-22 23:37 | 34.90199 | 136.98836 | 37879 ft | 401 kts | 226° |
| 2026-04-22 23:37 | 34.85919 | 136.94429 | 37897 ft | 401 kts | 226° |
| 2026-04-22 23:38 | 34.81669 | 136.90060 | 37897 ft | 400 kts | 225° |
| 2026-04-22 23:38 | 34.77423 | 136.85698 | 37900 ft | 402 kts | 225° |
| 2026-04-22 23:39 | 34.73148 | 136.81316 | 37895 ft | 402 kts | 226° |
| 2026-04-22 23:39 | 34.68864 | 136.76926 | 37897 ft | 403 kts | 226° |
| 2026-04-22 23:40 | 34.64591 | 136.72556 | 37900 ft | 403 kts | 226° |
| 2026-04-22 23:40 | 34.60321 | 136.68193 | 37897 ft | 406 kts | 225° |
| 2026-04-22 23:41 | 34.55989 | 136.63773 | 37898 ft | 408 kts | 225° |
| 2026-04-22 23:41 | 34.51653 | 136.59358 | 37882 ft | 403 kts | 225° |
| 2026-04-22 23:42 | 34.47351 | 136.54984 | 37883 ft | 404 kts | 225° |
| 2026-04-22 23:42 | 34.43047 | 136.50610 | 37881 ft | 406 kts | 225° |
| 2026-04-22 23:43 | 34.38731 | 136.46234 | 37876 ft | 406 kts | 226° |
| 2026-04-22 23:43 | 34.34408 | 136.41852 | 37872 ft | 409 kts | 225° |
| 2026-04-22 23:44 | 34.30037 | 136.37430 | 37878 ft | 409 kts | 225° |
| 2026-04-22 23:44 | 34.25664 | 136.33012 | 37911 ft | 408 kts | 224° |
| 2026-04-22 23:45 | 34.21296 | 136.28606 | 37900 ft | 410 kts | 225° |
| 2026-04-22 23:45 | 34.16918 | 136.24196 | 37897 ft | 410 kts | 225° |
| 2026-04-22 23:46 | 34.12555 | 136.19810 | 37859 ft | 409 kts | 225° |
| 2026-04-22 23:46 | 34.08153 | 136.15385 | 37865 ft | 411 kts | 224° |
| 2026-04-22 23:47 | 34.03784 | 136.11003 | 37853 ft | 412 kts | 224° |
| 2026-04-22 23:47 | 33.99398 | 136.06610 | 37854 ft | 410 kts | 224° |
| 2026-04-22 23:48 | 33.94977 | 136.02185 | 37861 ft | 412 kts | 224° |
| 2026-04-22 23:48 | 33.90586 | 135.97800 | 37871 ft | 412 kts | 225° |
| 2026-04-22 23:49 | 33.86179 | 135.93402 | 37878 ft | 411 kts | 225° |
| 2026-04-22 23:49 | 33.81768 | 135.89006 | 37873 ft | 412 kts | 225° |
| 2026-04-22 23:50 | 33.77336 | 135.84595 | 37865 ft | 414 kts | 224° |
| 2026-04-22 23:50 | 33.72913 | 135.80202 | 37868 ft | 411 kts | 224° |
| 2026-04-22 23:51 | 33.68510 | 135.75832 | 37858 ft | 413 kts | 224° |
| 2026-04-22 23:51 | 33.64081 | 135.71442 | 37851 ft | 413 kts | 225° |
| 2026-04-22 23:52 | 33.59636 | 135.67041 | 37854 ft | 413 kts | 225° |
| 2026-04-22 23:52 | 33.55219 | 135.62676 | 37846 ft | 413 kts | 224° |
| 2026-04-22 23:53 | 33.50790 | 135.58302 | 37849 ft | 412 kts | 225° |
| 2026-04-22 23:53 | 33.46350 | 135.53920 | 37846 ft | 415 kts | 224° |
| 2026-04-22 23:54 | 33.41908 | 135.49544 | 37838 ft | 412 kts | 225° |
| 2026-04-22 23:54 | 33.37494 | 135.45190 | 37828 ft | 412 kts | 224° |
| 2026-04-22 23:55 | 33.33282 | 135.40573 | 37828 ft | 410 kts | 230° |
| 2026-04-22 23:55 | 33.29198 | 135.35735 | 37809 ft | 413 kts | 229° |
| 2026-04-22 23:56 | 33.25102 | 135.30930 | 37830 ft | 414 kts | 228° |
| 2026-04-22 23:56 | 33.21011 | 135.26144 | 37817 ft | 413 kts | 229° |
| 2026-04-22 23:57 | 33.16888 | 135.21327 | 37822 ft | 415 kts | 228° |
| 2026-04-22 23:57 | 33.12777 | 135.16525 | 37804 ft | 415 kts | 228° |
| 2026-04-22 23:58 | 33.08659 | 135.11729 | 37802 ft | 414 kts | 228° |
| 2026-04-22 23:58 | 33.04528 | 135.06923 | 37797 ft | 417 kts | 228° |
| 2026-04-22 23:59 | 33.00361 | 135.02083 | 37795 ft | 418 kts | 228° |
| 2026-04-22 23:59 | 32.96194 | 134.97247 | 37782 ft | 417 kts | 228° |
| 2026-04-23 00:00 | 32.89987 | 134.90060 | 37779 ft | 416 kts | 228° |
| 2026-04-23 00:01 | 32.85823 | 134.85245 | 37797 ft | 417 kts | 228° |
| 2026-04-23 00:01 | 32.81664 | 134.80443 | 37784 ft | 418 kts | 227° |
| 2026-04-23 00:02 | 32.77485 | 134.75627 | 37775 ft | 416 kts | 228° |
| 2026-04-23 00:02 | 32.73344 | 134.70859 | 37776 ft | 416 kts | 228° |
| 2026-04-23 00:03 | 32.69185 | 134.66075 | 37773 ft | 417 kts | 227° |
| 2026-04-23 00:03 | 32.65007 | 134.61278 | 37773 ft | 419 kts | 228° |
| 2026-04-23 00:04 | 32.60854 | 134.56519 | 37770 ft | 415 kts | 228° |
| 2026-04-23 00:04 | 32.56671 | 134.51727 | 37768 ft | 416 kts | 228° |
| 2026-04-23 00:05 | 32.52513 | 134.46973 | 37759 ft | 417 kts | 227° |
| 2026-04-23 00:05 | 32.48359 | 134.42229 | 37748 ft | 417 kts | 228° |
| 2026-04-23 00:06 | 32.44155 | 134.37433 | 37749 ft | 420 kts | 229° |
| 2026-04-23 00:06 | 32.39948 | 134.32642 | 37761 ft | 419 kts | 228° |
| 2026-04-23 00:07 | 32.35748 | 134.27864 | 37739 ft | 421 kts | 227° |
| 2026-04-23 00:07 | 32.31529 | 134.23073 | 37731 ft | 423 kts | 228° |
| 2026-04-23 00:08 | 32.27303 | 134.18280 | 37718 ft | 419 kts | 229° |
| 2026-04-23 00:08 | 32.23080 | 134.13496 | 37714 ft | 423 kts | 229° |
| 2026-04-23 00:09 | 32.18826 | 134.08685 | 37712 ft | 422 kts | 229° |
| 2026-04-23 00:09 | 32.14586 | 134.03896 | 37712 ft | 424 kts | 229° |
| 2026-04-23 00:10 | 32.10311 | 133.99072 | 37699 ft | 423 kts | 228° |
| 2026-04-23 00:10 | 32.06068 | 133.94293 | 37703 ft | 423 kts | 228° |
| 2026-04-23 00:11 | 32.01812 | 133.89506 | 37701 ft | 422 kts | 228° |
| 2026-04-23 00:11 | 31.97556 | 133.84726 | 37697 ft | 424 kts | 229° |
| 2026-04-23 00:12 | 31.93292 | 133.79941 | 37702 ft | 425 kts | 229° |
| 2026-04-23 00:12 | 31.89015 | 133.75146 | 37704 ft | 425 kts | 228° |
| 2026-04-23 00:13 | 31.84756 | 133.70381 | 37697 ft | 423 kts | 228° |
| 2026-04-23 00:13 | 31.80470 | 133.65593 | 37687 ft | 423 kts | 229° |
| 2026-04-23 00:14 | 31.76214 | 133.60843 | 37683 ft | 423 kts | 229° |
| 2026-04-23 00:14 | 31.71946 | 133.56085 | 37682 ft | 422 kts | 227° |
| 2026-04-23 00:15 | 31.67653 | 133.51306 | 37703 ft | 425 kts | 228° |
| 2026-04-23 00:15 | 31.63374 | 133.46552 | 37683 ft | 425 kts | 228° |
| 2026-04-23 00:16 | 31.59112 | 133.41821 | 37674 ft | 421 kts | 227° |
| 2026-04-23 00:16 | 31.54846 | 133.37093 | 37681 ft | 424 kts | 228° |
| 2026-04-23 00:17 | 31.50573 | 133.32362 | 37690 ft | 423 kts | 227° |
| 2026-04-23 00:17 | 31.46260 | 133.27591 | 37693 ft | 426 kts | 227° |
| 2026-04-23 00:18 | 31.41978 | 133.22864 | 37689 ft | 425 kts | 227° |
| 2026-04-23 00:18 | 31.37663 | 133.18105 | 37684 ft | 428 kts | 227° |
| 2026-04-23 00:19 | 31.33333 | 133.13336 | 37688 ft | 428 kts | 226° |
| 2026-04-23 00:19 | 31.29005 | 133.08577 | 37691 ft | 428 kts | 226° |
| 2026-04-23 00:20 | 31.24679 | 133.03827 | 37680 ft | 426 kts | 227° |
| 2026-04-23 00:20 | 31.20361 | 132.99091 | 37683 ft | 428 kts | 226° |
| 2026-04-23 00:21 | 31.16016 | 132.94330 | 37683 ft | 429 kts | 226° |
| 2026-04-23 00:21 | 31.11659 | 132.89565 | 37680 ft | 429 kts | 226° |
| 2026-04-23 00:22 | 31.07300 | 132.84802 | 37671 ft | 431 kts | 227° |
| 2026-04-23 00:22 | 31.02921 | 132.80023 | 37662 ft | 432 kts | 227° |
| 2026-04-23 00:23 | 30.98555 | 132.75266 | 37659 ft | 430 kts | 227° |
| 2026-04-23 00:23 | 30.94180 | 132.70505 | 37685 ft | 432 kts | 227° |
| 2026-04-23 00:24 | 30.89774 | 132.65715 | 37673 ft | 434 kts | 227° |
| 2026-04-23 00:24 | 30.85380 | 132.60947 | 37679 ft | 434 kts | 227° |
| 2026-04-23 00:25 | 30.80954 | 132.56149 | 37685 ft | 434 kts | 227° |
| 2026-04-23 00:25 | 30.76565 | 132.51398 | 37674 ft | 434 kts | 227° |
| 2026-04-23 00:26 | 30.72139 | 132.46614 | 37691 ft | 433 kts | 227° |
| 2026-04-23 00:26 | 30.67735 | 132.41858 | 37690 ft | 433 kts | 227° |
| 2026-04-23 00:27 | 30.63307 | 132.37082 | 37679 ft | 433 kts | 227° |
| 2026-04-23 00:27 | 30.58898 | 132.32335 | 37713 ft | 436 kts | 227° |
| 2026-04-23 00:28 | 30.54446 | 132.27547 | 37702 ft | 434 kts | 227° |
| 2026-04-23 00:28 | 30.50000 | 132.22772 | 37702 ft | 434 kts | 227° |
| 2026-04-23 00:29 | 30.45589 | 132.18042 | 37701 ft | 433 kts | 227° |
| 2026-04-23 00:29 | 30.41150 | 132.13286 | 37708 ft | 435 kts | 226° |
| 2026-04-23 00:30 | 30.36709 | 132.08534 | 37707 ft | 433 kts | 227° |
| 2026-04-23 00:30 | 30.32288 | 132.03810 | 37710 ft | 435 kts | 227° |
| 2026-04-23 00:31 | 30.27844 | 131.99068 | 37706 ft | 434 kts | 227° |
| 2026-04-23 00:31 | 30.23377 | 131.94307 | 37722 ft | 436 kts | 227° |
| 2026-04-23 00:32 | 30.18920 | 131.89563 | 37716 ft | 434 kts | 227° |
| 2026-04-23 00:32 | 30.14477 | 131.84842 | 37714 ft | 434 kts | 227° |
| 2026-04-23 00:33 | 30.10052 | 131.80144 | 37724 ft | 434 kts | 227° |
| 2026-04-23 00:33 | 30.05603 | 131.75426 | 37715 ft | 433 kts | 227° |
| 2026-04-23 00:34 | 30.01154 | 131.70714 | 37703 ft | 433 kts | 227° |
| 2026-04-23 00:34 | 29.96698 | 131.66000 | 37696 ft | 435 kts | 228° |
| 2026-04-23 00:35 | 29.92254 | 131.61307 | 37707 ft | 433 kts | 228° |
| 2026-04-23 00:35 | 29.87794 | 131.56602 | 37709 ft | 435 kts | 228° |
| 2026-04-23 00:36 | 29.83351 | 131.51923 | 37705 ft | 432 kts | 228° |
| 2026-04-23 00:36 | 29.78905 | 131.47243 | 37709 ft | 432 kts | 227° |
| 2026-04-23 00:37 | 29.74484 | 131.42596 | 37725 ft | 435 kts | 228° |
| 2026-04-23 00:37 | 29.70001 | 131.37891 | 37709 ft | 434 kts | 228° |
| 2026-04-23 00:38 | 29.65535 | 131.33208 | 37745 ft | 436 kts | 228° |
| 2026-04-23 00:38 | 29.61083 | 131.28548 | 37743 ft | 434 kts | 228° |
| 2026-04-23 00:39 | 29.56617 | 131.23879 | 37742 ft | 434 kts | 228° |
| 2026-04-23 00:39 | 29.52155 | 131.19218 | 37716 ft | 431 kts | 228° |
| 2026-04-23 00:40 | 29.47713 | 131.14586 | 37731 ft | 431 kts | 229° |
| 2026-04-23 00:40 | 29.43277 | 131.09961 | 37719 ft | 433 kts | 228° |
| 2026-04-23 00:41 | 29.38817 | 131.05319 | 37727 ft | 434 kts | 228° |
| 2026-04-23 00:41 | 29.34349 | 131.00676 | 37721 ft | 435 kts | 228° |
| 2026-04-23 00:42 | 29.29877 | 130.96034 | 37718 ft | 434 kts | 228° |
| 2026-04-23 00:42 | 29.25395 | 130.91393 | 37728 ft | 430 kts | 228° |
| 2026-04-23 00:43 | 29.20970 | 130.86806 | 37742 ft | 432 kts | 228° |
| 2026-04-23 00:43 | 29.16484 | 130.82169 | 37758 ft | 431 kts | 228° |
| 2026-04-23 00:44 | 29.12035 | 130.77570 | 37754 ft | 433 kts | 228° |
| 2026-04-23 00:44 | 29.07554 | 130.72951 | 37739 ft | 431 kts | 228° |
| 2026-04-23 00:45 | 29.03119 | 130.68378 | 37759 ft | 431 kts | 228° |
| 2026-04-23 00:45 | 28.98644 | 130.63771 | 37767 ft | 432 kts | 229° |
| 2026-04-23 00:46 | 28.94182 | 130.59186 | 37749 ft | 431 kts | 229° |
| 2026-04-23 00:46 | 28.89735 | 130.54619 | 37760 ft | 430 kts | 229° |
| 2026-04-23 00:47 | 28.85286 | 130.50055 | 37756 ft | 432 kts | 229° |
| 2026-04-23 00:47 | 28.80802 | 130.45462 | 37760 ft | 430 kts | 228° |
| 2026-04-23 00:48 | 28.76367 | 130.40922 | 37768 ft | 431 kts | 229° |
| 2026-04-23 00:48 | 28.71886 | 130.36342 | 37764 ft | 429 kts | 228° |
| 2026-04-23 00:49 | 28.67422 | 130.31781 | 37787 ft | 433 kts | 228° |
| 2026-04-23 00:49 | 28.62966 | 130.27237 | 37780 ft | 429 kts | 229° |
| 2026-04-23 00:50 | 28.58523 | 130.22708 | 37774 ft | 429 kts | 228° |
| 2026-04-23 00:50 | 28.54088 | 130.18184 | 37782 ft | 430 kts | 228° |
| 2026-04-23 00:51 | 28.49715 | 130.13557 | 37781 ft | 425 kts | 233° |
| 2026-04-23 00:51 | 28.45908 | 130.08504 | 37778 ft | 423 kts | 236° |
| 2026-04-23 00:52 | 28.42229 | 130.03270 | 37787 ft | 422 kts | 237° |
| 2026-04-23 00:52 | 28.38494 | 129.98141 | 37788 ft | 423 kts | 236° |
| 2026-04-23 00:53 | 28.34723 | 129.93001 | 37791 ft | 423 kts | 235° |
| 2026-04-23 00:53 | 28.30967 | 129.87882 | 37788 ft | 422 kts | 235° |
| 2026-04-23 00:54 | 28.27210 | 129.82761 | 37658 ft | 425 kts | 236° |
| 2026-04-23 00:54 | 28.25289 | 129.80141 | 37168 ft | 429 kts | 235° |
| 2026-04-23 00:54 | 28.23386 | 129.77550 | 36742 ft | 430 kts | 235° |
| 2026-04-23 00:54 | 28.21486 | 129.74968 | 36301 ft | 427 kts | 235° |
| 2026-04-23 00:55 | 28.19583 | 129.72383 | 35855 ft | 424 kts | 235° |
| 2026-04-23 00:55 | 28.17707 | 129.69838 | 35404 ft | 421 kts | 235° |
| 2026-04-23 00:55 | 28.15840 | 129.67305 | 34960 ft | 417 kts | 235° |
| 2026-04-23 00:55 | 28.13982 | 129.64786 | 34511 ft | 414 kts | 234° |
| 2026-04-23 00:56 | 28.12163 | 129.62324 | 34077 ft | 412 kts | 234° |
| 2026-04-23 00:56 | 28.10335 | 129.59848 | 33631 ft | 409 kts | 234° |
| 2026-04-23 00:56 | 28.08518 | 129.57385 | 33195 ft | 407 kts | 234° |
| 2026-04-23 00:56 | 28.06708 | 129.54935 | 32771 ft | 404 kts | 234° |
| 2026-04-23 00:57 | 28.04907 | 129.52493 | 32362 ft | 401 kts | 234° |
| 2026-04-23 00:57 | 28.03139 | 129.50098 | 31946 ft | 400 kts | 234° |
| 2026-04-23 00:57 | 28.01368 | 129.47694 | 31537 ft | 398 kts | 234° |
| 2026-04-23 00:57 | 27.99588 | 129.45281 | 31128 ft | 398 kts | 234° |
| 2026-04-23 00:58 | 27.97815 | 129.42870 | 30722 ft | 396 kts | 234° |
| 2026-04-23 00:58 | 27.96072 | 129.40497 | 30320 ft | 394 kts | 234° |
| 2026-04-23 00:58 | 27.94320 | 129.38139 | 29907 ft | 391 kts | 234° |
| 2026-04-23 00:58 | 27.92564 | 129.35783 | 29487 ft | 388 kts | 234° |
| 2026-04-23 00:59 | 27.90834 | 129.33462 | 29099 ft | 386 kts | 233° |
| 2026-04-23 00:59 | 27.89117 | 129.31160 | 28719 ft | 385 kts | 234° |
| 2026-04-23 00:59 | 27.87383 | 129.28834 | 28376 ft | 384 kts | 234° |
| 2026-04-23 00:59 | 27.85680 | 129.26546 | 28042 ft | 384 kts | 234° |
| 2026-04-23 01:00 | 27.83961 | 129.24245 | 27694 ft | 381 kts | 234° |
| 2026-04-23 01:00 | 27.82255 | 129.21954 | 27347 ft | 380 kts | 233° |
| 2026-04-23 01:00 | 27.80557 | 129.19678 | 27000 ft | 380 kts | 233° |
| 2026-04-23 01:00 | 27.78853 | 129.17395 | 26655 ft | 378 kts | 234° |
| 2026-04-23 01:01 | 27.77164 | 129.15135 | 26315 ft | 376 kts | 234° |
| 2026-04-23 01:01 | 27.75480 | 129.12878 | 25958 ft | 376 kts | 233° |
| 2026-04-23 01:01 | 27.73803 | 129.10629 | 25623 ft | 376 kts | 233° |
| 2026-04-23 01:01 | 27.72135 | 129.08397 | 25279 ft | 374 kts | 233° |
| 2026-04-23 01:02 | 27.70440 | 129.06126 | 24928 ft | 374 kts | 233° |
| 2026-04-23 01:02 | 27.68770 | 129.03894 | 24577 ft | 372 kts | 233° |
| 2026-04-23 01:02 | 27.67114 | 129.01675 | 24236 ft | 370 kts | 233° |
| 2026-04-23 01:02 | 27.65449 | 128.99452 | 23887 ft | 369 kts | 233° |
| 2026-04-23 01:03 | 27.63815 | 128.97263 | 23548 ft | 369 kts | 233° |
| 2026-04-23 01:03 | 27.62149 | 128.95039 | 23210 ft | 367 kts | 233° |
| 2026-04-23 01:03 | 27.60516 | 128.92857 | 22875 ft | 365 kts | 233° |
| 2026-04-23 01:03 | 27.58884 | 128.90675 | 22530 ft | 363 kts | 232° |
| 2026-04-23 01:04 | 27.57263 | 128.88512 | 22201 ft | 361 kts | 233° |
| 2026-04-23 01:04 | 27.55647 | 128.86356 | 21875 ft | 359 kts | 232° |
| 2026-04-23 01:04 | 27.52432 | 128.82063 | 21212 ft | 356 kts | 232° |
| 2026-04-23 01:05 | 27.50843 | 128.79941 | 20882 ft | 356 kts | 233° |
| 2026-04-23 01:05 | 27.49252 | 128.77815 | 20550 ft | 356 kts | 232° |
| 2026-04-23 01:05 | 27.47646 | 128.75671 | 20215 ft | 354 kts | 233° |
| 2026-04-23 01:05 | 27.46080 | 128.73578 | 19881 ft | 352 kts | 233° |
| 2026-04-23 01:06 | 27.44498 | 128.71462 | 19541 ft | 349 kts | 233° |
| 2026-04-23 01:06 | 27.42881 | 128.69449 | 19188 ft | 348 kts | 225° |
| 2026-04-23 01:06 | 27.40989 | 128.67761 | 18874 ft | 350 kts | 221° |
| 2026-04-23 01:06 | 27.39038 | 128.66077 | 18553 ft | 349 kts | 221° |
| 2026-04-23 01:07 | 27.37129 | 128.64430 | 18217 ft | 349 kts | 221° |
| 2026-04-23 01:07 | 27.35203 | 128.62764 | 17888 ft | 345 kts | 221° |
| 2026-04-23 01:07 | 27.33312 | 128.61128 | 17557 ft | 344 kts | 221° |
| 2026-04-23 01:07 | 27.31409 | 128.59479 | 17226 ft | 342 kts | 221° |
| 2026-04-23 01:08 | 27.29549 | 128.57869 | 16905 ft | 340 kts | 221° |
| 2026-04-23 01:08 | 27.27658 | 128.56227 | 16564 ft | 338 kts | 221° |
| 2026-04-23 01:08 | 27.25819 | 128.54634 | 16233 ft | 336 kts | 221° |
| 2026-04-23 01:08 | 27.23953 | 128.53015 | 15903 ft | 335 kts | 221° |
| 2026-04-23 01:09 | 27.22132 | 128.51437 | 15568 ft | 331 kts | 221° |
| 2026-04-23 01:09 | 27.20300 | 128.49844 | 15229 ft | 330 kts | 221° |
| 2026-04-23 01:09 | 27.18485 | 128.48274 | 14902 ft | 329 kts | 221° |
| 2026-04-23 01:09 | 27.16675 | 128.46703 | 14565 ft | 327 kts | 221° |
| 2026-04-23 01:10 | 27.14902 | 128.45166 | 14227 ft | 326 kts | 221° |
| 2026-04-23 01:10 | 27.13105 | 128.43607 | 13890 ft | 323 kts | 221° |
| 2026-04-23 01:10 | 27.11339 | 128.42076 | 13547 ft | 320 kts | 221° |
| 2026-04-23 01:10 | 27.09572 | 128.40546 | 13235 ft | 319 kts | 221° |
| 2026-04-23 01:11 | 27.07812 | 128.39018 | 12939 ft | 317 kts | 221° |
| 2026-04-23 01:11 | 27.06081 | 128.37521 | 12649 ft | 315 kts | 221° |
| 2026-04-23 01:11 | 27.04343 | 128.36014 | 12346 ft | 313 kts | 221° |
| 2026-04-23 01:11 | 27.02630 | 128.34532 | 12053 ft | 312 kts | 221° |
| 2026-04-23 01:12 | 27.00918 | 128.33049 | 11770 ft | 310 kts | 220° |
| 2026-04-23 01:12 | 26.99206 | 128.31567 | 11479 ft | 307 kts | 221° |
| 2026-04-23 01:12 | 26.97540 | 128.30127 | 11201 ft | 299 kts | 220° |
| 2026-04-23 01:12 | 26.95919 | 128.28726 | 10947 ft | 291 kts | 221° |
| 2026-04-23 01:13 | 26.94336 | 128.27359 | 10689 ft | 283 kts | 221° |
| 2026-04-23 01:13 | 26.92792 | 128.26025 | 10426 ft | 276 kts | 221° |
| 2026-04-23 01:13 | 26.91291 | 128.24728 | 10174 ft | 269 kts | 221° |
| 2026-04-23 01:13 | 26.89820 | 128.23457 | 9920 ft | 265 kts | 221° |
| 2026-04-23 01:14 | 26.88359 | 128.22195 | 9675 ft | 263 kts | 221° |
| 2026-04-23 01:14 | 26.86929 | 128.20958 | 9442 ft | 261 kts | 220° |
| 2026-04-23 01:14 | 26.85492 | 128.19717 | 9207 ft | 260 kts | 220° |
| 2026-04-23 01:14 | 26.84049 | 128.18471 | 8963 ft | 259 kts | 220° |
| 2026-04-23 01:15 | 26.82643 | 128.17258 | 8726 ft | 257 kts | 221° |
| 2026-04-23 01:15 | 26.81210 | 128.16020 | 8487 ft | 256 kts | 220° |
| 2026-04-23 01:15 | 26.79815 | 128.14816 | 8236 ft | 251 kts | 220° |
| 2026-04-23 01:15 | 26.78450 | 128.13640 | 7985 ft | 247 kts | 220° |
| 2026-04-23 01:16 | 26.77085 | 128.12462 | 7735 ft | 243 kts | 220° |
| 2026-04-23 01:16 | 26.75761 | 128.11320 | 7489 ft | 240 kts | 221° |
| 2026-04-23 01:16 | 26.74451 | 128.10190 | 7255 ft | 236 kts | 220° |
| 2026-04-23 01:16 | 26.73146 | 128.09065 | 7006 ft | 234 kts | 221° |
| 2026-04-23 01:17 | 26.71865 | 128.07960 | 6747 ft | 233 kts | 221° |
| 2026-04-23 01:17 | 26.70588 | 128.06856 | 6493 ft | 231 kts | 221° |
| 2026-04-23 01:17 | 26.69327 | 128.05766 | 6274 ft | 230 kts | 221° |
| 2026-04-23 01:17 | 26.68061 | 128.04672 | 6063 ft | 228 kts | 222° |
| 2026-04-23 01:18 | 26.66709 | 128.03728 | 5806 ft | 231 kts | 206° |
| 2026-04-23 01:18 | 26.65213 | 128.03061 | 5646 ft | 230 kts | 208° |
| 2026-04-23 01:18 | 26.63734 | 128.02354 | 5426 ft | 230 kts | 208° |
| 2026-04-23 01:18 | 26.62266 | 128.01649 | 5207 ft | 230 kts | 208° |
| 2026-04-23 01:19 | 26.60830 | 128.00966 | 5066 ft | 218 kts | 208° |
| 2026-04-23 01:19 | 26.59458 | 128.00311 | 4828 ft | 211 kts | 207° |
| 2026-04-23 01:19 | 26.58110 | 127.99670 | 4566 ft | 206 kts | 207° |
| 2026-04-23 01:19 | 26.56820 | 127.99056 | 4321 ft | 199 kts | 208° |
| 2026-04-23 01:20 | 26.55550 | 127.98453 | 4078 ft | 194 kts | 209° |
| 2026-04-23 01:20 | 26.54315 | 127.97871 | 3757 ft | 194 kts | 207° |
| 2026-04-23 01:20 | 26.53033 | 127.97411 | 3513 ft | 191 kts | 202° |
| 2026-04-23 01:20 | 26.51783 | 127.97006 | 3349 ft | 183 kts | 202° |
| 2026-04-23 01:21 | 26.50632 | 127.96561 | 3291 ft | 173 kts | 214° |
| 2026-04-23 01:21 | 26.49639 | 127.95803 | 3195 ft | 171 kts | 225° |
| 2026-04-23 01:21 | 26.48766 | 127.94855 | 2872 ft | 176 kts | 230° |
| 2026-04-23 01:21 | 26.47959 | 127.93852 | 2634 ft | 169 kts | 232° |
| 2026-04-23 01:22 | 26.47222 | 127.92857 | 2613 ft | 163 kts | 233° |
| 2026-04-23 01:22 | 26.46510 | 127.91863 | 2672 ft | 165 kts | 233° |
| 2026-04-23 01:22 | 26.45773 | 127.90868 | 2585 ft | 164 kts | 231° |
| 2026-04-23 01:22 | 26.45072 | 127.89945 | 2482 ft | 154 kts | 233° |
| 2026-04-23 01:23 | 26.44417 | 127.88978 | 2347 ft | 156 kts | 235° |
| 2026-04-23 01:23 | 26.43779 | 127.88002 | 2179 ft | 153 kts | 236° |
| 2026-04-23 01:23 | 26.43162 | 127.87042 | 2016 ft | 152 kts | 235° |
| 2026-04-23 01:23 | 26.42507 | 127.86117 | 1914 ft | 152 kts | 233° |
| 2026-04-23 01:24 | 26.41872 | 127.85184 | 1703 ft | 145 kts | 234° |
| 2026-04-23 01:24 | 26.41268 | 127.84328 | 1504 ft | 141 kts | 231° |
| 2026-04-23 01:24 | 26.40594 | 127.83535 | 1503 ft | 132 kts | 225° |
| 2026-04-23 01:24 | 26.39879 | 127.82888 | 1325 ft | 137 kts | 223° |
| 2026-04-23 01:25 | 26.39230 | 127.82127 | 1075 ft | 136 kts | 231° |
| 2026-04-23 01:25 | 26.38705 | 127.81261 | 915 ft | 138 kts | 240° |
| 2026-04-23 01:25 | 26.38302 | 127.80275 | 674 ft | 138 kts | 242° |
| 2026-04-23 01:25 | 26.37810 | 127.79372 | 578 ft | 136 kts | 229° |
| 2026-04-23 01:26 | 26.37149 | 127.78584 | 280 ft | 141 kts | 224° |
| 2026-04-23 01:26 | 26.36524 | 127.77764 | 160 ft | 134 kts | 229° |
| 2026-04-23 01:26 | 26.36024 | 127.77084 | 148 ft | 75 kts | 231° |
| 2026-04-23 01:26 | 26.35845 | 127.76834 | 144 ft | 24 kts | 232° |
| 2026-04-23 01:27 | 26.35755 | 127.76711 | 142 ft | 17 kts | 230° |
| 2026-04-23 01:27 | 26.35690 | 127.76620 | 139 ft | 12 kts | 231° |
| 2026-04-23 01:27 | 26.35641 | 127.76551 | 136 ft | 9 kts | 231° |
| 2026-04-23 01:27 | 26.35599 | 127.76495 | 134 ft | 10 kts | 230° |
| 2026-04-23 01:28 | 26.35544 | 127.76418 | 132 ft | 14 kts | 232° |
| 2026-04-23 01:28 | 26.35470 | 127.76316 | 128 ft | 19 kts | 230° |
| 2026-04-23 01:28 | 26.35388 | 127.76208 | 126 ft | 15 kts | 218° |
| 2026-04-23 01:28 | 26.35295 | 127.76215 | 126 ft | 14 kts | 138° |
| 2026-04-23 01:29 | 26.35219 | 127.76286 | 127 ft | 13 kts | 141° |
| 2026-04-23 01:29 | 26.35144 | 127.76352 | 129 ft | 12 kts | 142° |
| 2026-04-23 01:29 | 26.35081 | 127.76408 | 132 ft | 10 kts | 141° |
| 2026-04-23 01:29 | 26.35028 | 127.76453 | 135 ft | 9 kts | 143° |
| 2026-04-23 01:30 | 26.34976 | 127.76500 | 138 ft | 8 kts | 141° |
| 2026-04-23 01:30 | 26.34942 | 127.76532 | 141 ft | 4 kts | 135° |
| 2026-04-23 01:30 | 26.34930 | 127.76552 | 142 ft | 2 kts | 109° |
| 2026-04-23 01:30 | 26.34928 | 127.76573 | 144 ft | 3 kts | 85° |
| 2026-04-23 01:31 | 26.34935 | 127.76605 | 146 ft | 4 kts | 64° |
| 2026-04-23 01:31 | 26.34960 | 127.76651 | 148 ft | 8 kts | 61° |
| 2026-04-23 01:31 | 26.34986 | 127.76714 | 151 ft | 9 kts | 44° |
| 2026-04-23 01:31 | 26.35049 | 127.76710 | 150 ft | 0 kts | 330° |
| 2026-04-23 01:39 | 26.35049 | 127.76709 | 150 ft | 0 kts | 330° |